<?xml version="1.0" encoding="utf-8"?>
<gpx xmlns:xsi="http://www.w3.org/2001/XMLSchema-instance" xmlns:xsd="http://www.w3.org/2001/XMLSchema" version="1.1" creator="Shapelink.com" xmlns="http://www.topografix.com/GPX/1/1" xmlns:gpxtpx="http://www.garmin.com/xmlschemas/TrackPointExtension/v1">
  <metadata>
    <name>Fotturer 4.42 km, 2019-11-17</name>
    <desc></desc>
    <author><name>Alexander Engvall</name></author> 
    <time>2019-11-17T09:40:48Z</time>
  </metadata>
  <trk>
    <name>Fotturer 4.42 km, 2019-11-17</name>
    <trkseg>
      <trkpt lat="59.251218" lon="17.924146">
        <ele>57.2</ele>
        <time>2019-11-17T09:40:48Z</time>
      </trkpt>
      <trkpt lat="59.251254" lon="17.923984">
        <ele>56.9</ele>
        <time>2019-11-17T09:41:15Z</time>
      </trkpt>
      <trkpt lat="59.251249" lon="17.923898">
        <ele>56.7</ele>
        <time>2019-11-17T09:41:19Z</time>
      </trkpt>
      <trkpt lat="59.251231" lon="17.923811">
        <ele>56.5</ele>
        <time>2019-11-17T09:41:22Z</time>
      </trkpt>
      <trkpt lat="59.251217" lon="17.923757">
        <ele>56.4</ele>
        <time>2019-11-17T09:41:24Z</time>
      </trkpt>
      <trkpt lat="59.251202" lon="17.923703">
        <ele>56.3</ele>
        <time>2019-11-17T09:41:26Z</time>
      </trkpt>
      <trkpt lat="59.25118" lon="17.923648">
        <ele>56.2</ele>
        <time>2019-11-17T09:41:29Z</time>
      </trkpt>
      <trkpt lat="59.251155" lon="17.923598">
        <ele>56.1</ele>
        <time>2019-11-17T09:41:31Z</time>
      </trkpt>
      <trkpt lat="59.251131" lon="17.923563">
        <ele>56</ele>
        <time>2019-11-17T09:41:34Z</time>
      </trkpt>
      <trkpt lat="59.251102" lon="17.923534">
        <ele>55.9</ele>
        <time>2019-11-17T09:41:37Z</time>
      </trkpt>
      <trkpt lat="59.25107" lon="17.923512">
        <ele>55.8</ele>
        <time>2019-11-17T09:41:39Z</time>
      </trkpt>
      <trkpt lat="59.251035" lon="17.923498">
        <ele>55.7</ele>
        <time>2019-11-17T09:41:42Z</time>
      </trkpt>
      <trkpt lat="59.251003" lon="17.923484">
        <ele>55.6</ele>
        <time>2019-11-17T09:41:45Z</time>
      </trkpt>
      <trkpt lat="59.250972" lon="17.923479">
        <ele>55.6</ele>
        <time>2019-11-17T09:41:47Z</time>
      </trkpt>
      <trkpt lat="59.250944" lon="17.923469">
        <ele>55.8</ele>
        <time>2019-11-17T09:41:50Z</time>
      </trkpt>
      <trkpt lat="59.250914" lon="17.923475">
        <ele>56</ele>
        <time>2019-11-17T09:41:54Z</time>
      </trkpt>
      <trkpt lat="59.250875" lon="17.923497">
        <ele>56.2</ele>
        <time>2019-11-17T09:41:58Z</time>
      </trkpt>
      <trkpt lat="59.250845" lon="17.923513">
        <ele>56.4</ele>
        <time>2019-11-17T09:42:01Z</time>
      </trkpt>
      <trkpt lat="59.250815" lon="17.923527">
        <ele>56.5</ele>
        <time>2019-11-17T09:42:03Z</time>
      </trkpt>
      <trkpt lat="59.25078" lon="17.92354">
        <ele>56.7</ele>
        <time>2019-11-17T09:42:07Z</time>
      </trkpt>
      <trkpt lat="59.250745" lon="17.923536">
        <ele>56.7</ele>
        <time>2019-11-17T09:42:11Z</time>
      </trkpt>
      <trkpt lat="59.250711" lon="17.923524">
        <ele>56.8</ele>
        <time>2019-11-17T09:42:15Z</time>
      </trkpt>
      <trkpt lat="59.250677" lon="17.923505">
        <ele>56.9</ele>
        <time>2019-11-17T09:42:20Z</time>
      </trkpt>
      <trkpt lat="59.250649" lon="17.923467">
        <ele>56.9</ele>
        <time>2019-11-17T09:42:25Z</time>
      </trkpt>
      <trkpt lat="59.250624" lon="17.923447">
        <ele>57</ele>
        <time>2019-11-17T09:42:34Z</time>
      </trkpt>
      <trkpt lat="59.25059" lon="17.923442">
        <ele>57</ele>
        <time>2019-11-17T09:42:39Z</time>
      </trkpt>
      <trkpt lat="59.250559" lon="17.923438">
        <ele>57.1</ele>
        <time>2019-11-17T09:42:43Z</time>
      </trkpt>
      <trkpt lat="59.250527" lon="17.923435">
        <ele>57.1</ele>
        <time>2019-11-17T09:42:45Z</time>
      </trkpt>
      <trkpt lat="59.250499" lon="17.92343">
        <ele>57.1</ele>
        <time>2019-11-17T09:42:48Z</time>
      </trkpt>
      <trkpt lat="59.250464" lon="17.923419">
        <ele>57.1</ele>
        <time>2019-11-17T09:42:52Z</time>
      </trkpt>
      <trkpt lat="59.250433" lon="17.923409">
        <ele>57.1</ele>
        <time>2019-11-17T09:42:56Z</time>
      </trkpt>
      <trkpt lat="59.250407" lon="17.923387">
        <ele>57.1</ele>
        <time>2019-11-17T09:43:00Z</time>
      </trkpt>
      <trkpt lat="59.250373" lon="17.923351">
        <ele>57.2</ele>
        <time>2019-11-17T09:43:04Z</time>
      </trkpt>
      <trkpt lat="59.250338" lon="17.923333">
        <ele>57.2</ele>
        <time>2019-11-17T09:43:08Z</time>
      </trkpt>
      <trkpt lat="59.250299" lon="17.923323">
        <ele>57.2</ele>
        <time>2019-11-17T09:43:13Z</time>
      </trkpt>
      <trkpt lat="59.25027" lon="17.92333">
        <ele>57.3</ele>
        <time>2019-11-17T09:43:17Z</time>
      </trkpt>
      <trkpt lat="59.250241" lon="17.92334">
        <ele>57.3</ele>
        <time>2019-11-17T09:43:21Z</time>
      </trkpt>
      <trkpt lat="59.250209" lon="17.923329">
        <ele>57.3</ele>
        <time>2019-11-17T09:43:28Z</time>
      </trkpt>
      <trkpt lat="59.25018" lon="17.923328">
        <ele>57.3</ele>
        <time>2019-11-17T09:43:31Z</time>
      </trkpt>
      <trkpt lat="59.250145" lon="17.923323">
        <ele>57.4</ele>
        <time>2019-11-17T09:43:34Z</time>
      </trkpt>
      <trkpt lat="59.250112" lon="17.923316">
        <ele>57.5</ele>
        <time>2019-11-17T09:43:38Z</time>
      </trkpt>
      <trkpt lat="59.250082" lon="17.923312">
        <ele>57.6</ele>
        <time>2019-11-17T09:43:43Z</time>
      </trkpt>
      <trkpt lat="59.250052" lon="17.923286">
        <ele>57.7</ele>
        <time>2019-11-17T09:43:54Z</time>
      </trkpt>
      <trkpt lat="59.250017" lon="17.923272">
        <ele>57.8</ele>
        <time>2019-11-17T09:44:00Z</time>
      </trkpt>
      <trkpt lat="59.249995" lon="17.923224">
        <ele>58</ele>
        <time>2019-11-17T09:44:07Z</time>
      </trkpt>
      <trkpt lat="59.249972" lon="17.923184">
        <ele>58.1</ele>
        <time>2019-11-17T09:44:13Z</time>
      </trkpt>
      <trkpt lat="59.249946" lon="17.923151">
        <ele>58.3</ele>
        <time>2019-11-17T09:44:16Z</time>
      </trkpt>
      <trkpt lat="59.249924" lon="17.923116">
        <ele>58.5</ele>
        <time>2019-11-17T09:44:22Z</time>
      </trkpt>
      <trkpt lat="59.249897" lon="17.923086">
        <ele>58.6</ele>
        <time>2019-11-17T09:44:27Z</time>
      </trkpt>
      <trkpt lat="59.249869" lon="17.923075">
        <ele>58.8</ele>
        <time>2019-11-17T09:44:33Z</time>
      </trkpt>
      <trkpt lat="59.24984" lon="17.923039">
        <ele>59</ele>
        <time>2019-11-17T09:44:40Z</time>
      </trkpt>
      <trkpt lat="59.249812" lon="17.922995">
        <ele>59.3</ele>
        <time>2019-11-17T09:44:46Z</time>
      </trkpt>
      <trkpt lat="59.249792" lon="17.92295">
        <ele>59.5</ele>
        <time>2019-11-17T09:44:52Z</time>
      </trkpt>
      <trkpt lat="59.249768" lon="17.922912">
        <ele>59.7</ele>
        <time>2019-11-17T09:44:56Z</time>
      </trkpt>
      <trkpt lat="59.249741" lon="17.922877">
        <ele>59.9</ele>
        <time>2019-11-17T09:45:01Z</time>
      </trkpt>
      <trkpt lat="59.249661" lon="17.922782">
        <ele>60.6</ele>
        <time>2019-11-17T09:45:12Z</time>
      </trkpt>
      <trkpt lat="59.249634" lon="17.922755">
        <ele>60.8</ele>
        <time>2019-11-17T09:45:15Z</time>
      </trkpt>
      <trkpt lat="59.249603" lon="17.922729">
        <ele>61</ele>
        <time>2019-11-17T09:45:18Z</time>
      </trkpt>
      <trkpt lat="59.249575" lon="17.922716">
        <ele>61.2</ele>
        <time>2019-11-17T09:45:20Z</time>
      </trkpt>
      <trkpt lat="59.249549" lon="17.922699">
        <ele>61.4</ele>
        <time>2019-11-17T09:45:23Z</time>
      </trkpt>
      <trkpt lat="59.249521" lon="17.922671">
        <ele>61.5</ele>
        <time>2019-11-17T09:45:26Z</time>
      </trkpt>
      <trkpt lat="59.24949" lon="17.92267">
        <ele>61.7</ele>
        <time>2019-11-17T09:45:31Z</time>
      </trkpt>
      <trkpt lat="59.24946" lon="17.922644">
        <ele>61.9</ele>
        <time>2019-11-17T09:45:36Z</time>
      </trkpt>
      <trkpt lat="59.24943" lon="17.922642">
        <ele>62.1</ele>
        <time>2019-11-17T09:45:39Z</time>
      </trkpt>
      <trkpt lat="59.249395" lon="17.922651">
        <ele>62.3</ele>
        <time>2019-11-17T09:45:42Z</time>
      </trkpt>
      <trkpt lat="59.249364" lon="17.922655">
        <ele>62.4</ele>
        <time>2019-11-17T09:45:47Z</time>
      </trkpt>
      <trkpt lat="59.249337" lon="17.922639">
        <ele>62.5</ele>
        <time>2019-11-17T09:45:52Z</time>
      </trkpt>
      <trkpt lat="59.249315" lon="17.922596">
        <ele>62.7</ele>
        <time>2019-11-17T09:46:01Z</time>
      </trkpt>
      <trkpt lat="59.249203" lon="17.922462">
        <ele>63.3</ele>
        <time>2019-11-17T09:46:26Z</time>
      </trkpt>
      <trkpt lat="59.249161" lon="17.922447">
        <ele>63.6</ele>
        <time>2019-11-17T09:46:30Z</time>
      </trkpt>
      <trkpt lat="59.249123" lon="17.922419">
        <ele>63.9</ele>
        <time>2019-11-17T09:46:33Z</time>
      </trkpt>
      <trkpt lat="59.249089" lon="17.922404">
        <ele>64.2</ele>
        <time>2019-11-17T09:46:36Z</time>
      </trkpt>
      <trkpt lat="59.249051" lon="17.922409">
        <ele>64.5</ele>
        <time>2019-11-17T09:46:40Z</time>
      </trkpt>
      <trkpt lat="59.249022" lon="17.922392">
        <ele>64.7</ele>
        <time>2019-11-17T09:46:42Z</time>
      </trkpt>
      <trkpt lat="59.248988" lon="17.92238">
        <ele>65</ele>
        <time>2019-11-17T09:46:45Z</time>
      </trkpt>
      <trkpt lat="59.248952" lon="17.922373">
        <ele>65.2</ele>
        <time>2019-11-17T09:46:48Z</time>
      </trkpt>
      <trkpt lat="59.248909" lon="17.922387">
        <ele>65.5</ele>
        <time>2019-11-17T09:46:52Z</time>
      </trkpt>
      <trkpt lat="59.248882" lon="17.922404">
        <ele>65.8</ele>
        <time>2019-11-17T09:46:56Z</time>
      </trkpt>
      <trkpt lat="59.248818" lon="17.922394">
        <ele>66.3</ele>
        <time>2019-11-17T09:47:13Z</time>
      </trkpt>
      <trkpt lat="59.248793" lon="17.92235">
        <ele>66.6</ele>
        <time>2019-11-17T09:47:19Z</time>
      </trkpt>
      <trkpt lat="59.248764" lon="17.922341">
        <ele>66.7</ele>
        <time>2019-11-17T09:47:25Z</time>
      </trkpt>
      <trkpt lat="59.248743" lon="17.922287">
        <ele>67</ele>
        <time>2019-11-17T09:47:31Z</time>
      </trkpt>
      <trkpt lat="59.248734" lon="17.922212">
        <ele>67.2</ele>
        <time>2019-11-17T09:47:38Z</time>
      </trkpt>
      <trkpt lat="59.248724" lon="17.922146">
        <ele>67.4</ele>
        <time>2019-11-17T09:47:43Z</time>
      </trkpt>
      <trkpt lat="59.248706" lon="17.922094">
        <ele>67.6</ele>
        <time>2019-11-17T09:47:48Z</time>
      </trkpt>
      <trkpt lat="59.248706" lon="17.921962">
        <ele>68.1</ele>
        <time>2019-11-17T09:47:55Z</time>
      </trkpt>
      <trkpt lat="59.248691" lon="17.921877">
        <ele>68.1</ele>
        <time>2019-11-17T09:47:58Z</time>
      </trkpt>
      <trkpt lat="59.248692" lon="17.921819">
        <ele>68.2</ele>
        <time>2019-11-17T09:48:05Z</time>
      </trkpt>
      <trkpt lat="59.248723" lon="17.92178">
        <ele>68.2</ele>
        <time>2019-11-17T09:48:11Z</time>
      </trkpt>
      <trkpt lat="59.248741" lon="17.921737">
        <ele>68.3</ele>
        <time>2019-11-17T09:48:15Z</time>
      </trkpt>
      <trkpt lat="59.248768" lon="17.921726">
        <ele>68.3</ele>
        <time>2019-11-17T09:48:17Z</time>
      </trkpt>
      <trkpt lat="59.248794" lon="17.921707">
        <ele>68.4</ele>
        <time>2019-11-17T09:48:21Z</time>
      </trkpt>
      <trkpt lat="59.248817" lon="17.921655">
        <ele>68.4</ele>
        <time>2019-11-17T09:48:25Z</time>
      </trkpt>
      <trkpt lat="59.248845" lon="17.921616">
        <ele>68.5</ele>
        <time>2019-11-17T09:48:31Z</time>
      </trkpt>
      <trkpt lat="59.248873" lon="17.921611">
        <ele>68.6</ele>
        <time>2019-11-17T09:48:33Z</time>
      </trkpt>
      <trkpt lat="59.248912" lon="17.921605">
        <ele>68.7</ele>
        <time>2019-11-17T09:48:36Z</time>
      </trkpt>
      <trkpt lat="59.248947" lon="17.921602">
        <ele>68.7</ele>
        <time>2019-11-17T09:48:38Z</time>
      </trkpt>
      <trkpt lat="59.248979" lon="17.9216">
        <ele>68.8</ele>
        <time>2019-11-17T09:48:40Z</time>
      </trkpt>
      <trkpt lat="59.249006" lon="17.921573">
        <ele>68.8</ele>
        <time>2019-11-17T09:48:44Z</time>
      </trkpt>
      <trkpt lat="59.249045" lon="17.921535">
        <ele>68.8</ele>
        <time>2019-11-17T09:48:48Z</time>
      </trkpt>
      <trkpt lat="59.249074" lon="17.921519">
        <ele>68.8</ele>
        <time>2019-11-17T09:48:52Z</time>
      </trkpt>
      <trkpt lat="59.249101" lon="17.921512">
        <ele>68.8</ele>
        <time>2019-11-17T09:48:56Z</time>
      </trkpt>
      <trkpt lat="59.249126" lon="17.921484">
        <ele>68.8</ele>
        <time>2019-11-17T09:49:00Z</time>
      </trkpt>
      <trkpt lat="59.24915" lon="17.921455">
        <ele>68.8</ele>
        <time>2019-11-17T09:49:03Z</time>
      </trkpt>
      <trkpt lat="59.249176" lon="17.921415">
        <ele>68.7</ele>
        <time>2019-11-17T09:49:06Z</time>
      </trkpt>
      <trkpt lat="59.249199" lon="17.921375">
        <ele>68.7</ele>
        <time>2019-11-17T09:49:09Z</time>
      </trkpt>
      <trkpt lat="59.24922" lon="17.921332">
        <ele>68.6</ele>
        <time>2019-11-17T09:49:12Z</time>
      </trkpt>
      <trkpt lat="59.249245" lon="17.921284">
        <ele>68.5</ele>
        <time>2019-11-17T09:49:15Z</time>
      </trkpt>
      <trkpt lat="59.249277" lon="17.921239">
        <ele>68.5</ele>
        <time>2019-11-17T09:49:20Z</time>
      </trkpt>
      <trkpt lat="59.249301" lon="17.921209">
        <ele>68.4</ele>
        <time>2019-11-17T09:49:22Z</time>
      </trkpt>
      <trkpt lat="59.249331" lon="17.921156">
        <ele>68.4</ele>
        <time>2019-11-17T09:49:26Z</time>
      </trkpt>
      <trkpt lat="59.249352" lon="17.921116">
        <ele>68.3</ele>
        <time>2019-11-17T09:49:29Z</time>
      </trkpt>
      <trkpt lat="59.249373" lon="17.921081">
        <ele>68.3</ele>
        <time>2019-11-17T09:49:31Z</time>
      </trkpt>
      <trkpt lat="59.249402" lon="17.921035">
        <ele>68.3</ele>
        <time>2019-11-17T09:49:35Z</time>
      </trkpt>
      <trkpt lat="59.249426" lon="17.920997">
        <ele>68.3</ele>
        <time>2019-11-17T09:49:39Z</time>
      </trkpt>
      <trkpt lat="59.249457" lon="17.920969">
        <ele>68.3</ele>
        <time>2019-11-17T09:49:42Z</time>
      </trkpt>
      <trkpt lat="59.249487" lon="17.920946">
        <ele>68.3</ele>
        <time>2019-11-17T09:49:44Z</time>
      </trkpt>
      <trkpt lat="59.249519" lon="17.920909">
        <ele>68.3</ele>
        <time>2019-11-17T09:49:48Z</time>
      </trkpt>
      <trkpt lat="59.249542" lon="17.920875">
        <ele>68.3</ele>
        <time>2019-11-17T09:49:51Z</time>
      </trkpt>
      <trkpt lat="59.249564" lon="17.920839">
        <ele>68.3</ele>
        <time>2019-11-17T09:49:54Z</time>
      </trkpt>
      <trkpt lat="59.249589" lon="17.920795">
        <ele>68.3</ele>
        <time>2019-11-17T09:49:57Z</time>
      </trkpt>
      <trkpt lat="59.249613" lon="17.920744">
        <ele>68.3</ele>
        <time>2019-11-17T09:50:01Z</time>
      </trkpt>
      <trkpt lat="59.249633" lon="17.920689">
        <ele>68.3</ele>
        <time>2019-11-17T09:50:05Z</time>
      </trkpt>
      <trkpt lat="59.249646" lon="17.920626">
        <ele>68.2</ele>
        <time>2019-11-17T09:50:09Z</time>
      </trkpt>
      <trkpt lat="59.24966" lon="17.920569">
        <ele>68.2</ele>
        <time>2019-11-17T09:50:13Z</time>
      </trkpt>
      <trkpt lat="59.249675" lon="17.920523">
        <ele>68.2</ele>
        <time>2019-11-17T09:50:17Z</time>
      </trkpt>
      <trkpt lat="59.249691" lon="17.920469">
        <ele>68.2</ele>
        <time>2019-11-17T09:50:21Z</time>
      </trkpt>
      <trkpt lat="59.249707" lon="17.920404">
        <ele>68.1</ele>
        <time>2019-11-17T09:50:26Z</time>
      </trkpt>
      <trkpt lat="59.24972" lon="17.92035">
        <ele>68.1</ele>
        <time>2019-11-17T09:50:31Z</time>
      </trkpt>
      <trkpt lat="59.249732" lon="17.92028">
        <ele>68</ele>
        <time>2019-11-17T09:50:35Z</time>
      </trkpt>
      <trkpt lat="59.249742" lon="17.920221">
        <ele>68</ele>
        <time>2019-11-17T09:50:39Z</time>
      </trkpt>
      <trkpt lat="59.249748" lon="17.92016">
        <ele>67.9</ele>
        <time>2019-11-17T09:50:42Z</time>
      </trkpt>
      <trkpt lat="59.249753" lon="17.920104">
        <ele>67.8</ele>
        <time>2019-11-17T09:50:46Z</time>
      </trkpt>
      <trkpt lat="59.249758" lon="17.920042">
        <ele>67.8</ele>
        <time>2019-11-17T09:50:49Z</time>
      </trkpt>
      <trkpt lat="59.249765" lon="17.919987">
        <ele>67.7</ele>
        <time>2019-11-17T09:50:52Z</time>
      </trkpt>
      <trkpt lat="59.249779" lon="17.919909">
        <ele>67.6</ele>
        <time>2019-11-17T09:50:55Z</time>
      </trkpt>
      <trkpt lat="59.249794" lon="17.919847">
        <ele>67.5</ele>
        <time>2019-11-17T09:50:59Z</time>
      </trkpt>
      <trkpt lat="59.249801" lon="17.919787">
        <ele>67.4</ele>
        <time>2019-11-17T09:51:04Z</time>
      </trkpt>
      <trkpt lat="59.249803" lon="17.919729">
        <ele>67.3</ele>
        <time>2019-11-17T09:51:08Z</time>
      </trkpt>
      <trkpt lat="59.249803" lon="17.919656">
        <ele>67.2</ele>
        <time>2019-11-17T09:51:12Z</time>
      </trkpt>
      <trkpt lat="59.249799" lon="17.919594">
        <ele>67.1</ele>
        <time>2019-11-17T09:51:15Z</time>
      </trkpt>
      <trkpt lat="59.249792" lon="17.919511">
        <ele>66.9</ele>
        <time>2019-11-17T09:51:19Z</time>
      </trkpt>
      <trkpt lat="59.249791" lon="17.919427">
        <ele>66.8</ele>
        <time>2019-11-17T09:51:23Z</time>
      </trkpt>
      <trkpt lat="59.249797" lon="17.919359">
        <ele>66.6</ele>
        <time>2019-11-17T09:51:26Z</time>
      </trkpt>
      <trkpt lat="59.249804" lon="17.919276">
        <ele>66.3</ele>
        <time>2019-11-17T09:51:30Z</time>
      </trkpt>
      <trkpt lat="59.249806" lon="17.919223">
        <ele>66.1</ele>
        <time>2019-11-17T09:51:33Z</time>
      </trkpt>
      <trkpt lat="59.249812" lon="17.919166">
        <ele>66</ele>
        <time>2019-11-17T09:51:37Z</time>
      </trkpt>
      <trkpt lat="59.249822" lon="17.919117">
        <ele>65.9</ele>
        <time>2019-11-17T09:51:39Z</time>
      </trkpt>
      <trkpt lat="59.249838" lon="17.91906">
        <ele>65.8</ele>
        <time>2019-11-17T09:51:43Z</time>
      </trkpt>
      <trkpt lat="59.249861" lon="17.91902">
        <ele>65.6</ele>
        <time>2019-11-17T09:51:47Z</time>
      </trkpt>
      <trkpt lat="59.249885" lon="17.918956">
        <ele>65.5</ele>
        <time>2019-11-17T09:51:52Z</time>
      </trkpt>
      <trkpt lat="59.249902" lon="17.918907">
        <ele>65.4</ele>
        <time>2019-11-17T09:51:56Z</time>
      </trkpt>
      <trkpt lat="59.249928" lon="17.918856">
        <ele>65.3</ele>
        <time>2019-11-17T09:51:59Z</time>
      </trkpt>
      <trkpt lat="59.24995" lon="17.91881">
        <ele>65.1</ele>
        <time>2019-11-17T09:52:03Z</time>
      </trkpt>
      <trkpt lat="59.249981" lon="17.918769">
        <ele>65</ele>
        <time>2019-11-17T09:52:07Z</time>
      </trkpt>
      <trkpt lat="59.250012" lon="17.918734">
        <ele>64.8</ele>
        <time>2019-11-17T09:52:11Z</time>
      </trkpt>
      <trkpt lat="59.250043" lon="17.918695">
        <ele>64.6</ele>
        <time>2019-11-17T09:52:14Z</time>
      </trkpt>
      <trkpt lat="59.250067" lon="17.918662">
        <ele>64.4</ele>
        <time>2019-11-17T09:52:17Z</time>
      </trkpt>
      <trkpt lat="59.250096" lon="17.918618">
        <ele>64.1</ele>
        <time>2019-11-17T09:52:21Z</time>
      </trkpt>
      <trkpt lat="59.250124" lon="17.918588">
        <ele>63.9</ele>
        <time>2019-11-17T09:52:25Z</time>
      </trkpt>
      <trkpt lat="59.25015" lon="17.91856">
        <ele>63.7</ele>
        <time>2019-11-17T09:52:28Z</time>
      </trkpt>
      <trkpt lat="59.25018" lon="17.918526">
        <ele>63.4</ele>
        <time>2019-11-17T09:52:32Z</time>
      </trkpt>
      <trkpt lat="59.250205" lon="17.918505">
        <ele>63.2</ele>
        <time>2019-11-17T09:52:34Z</time>
      </trkpt>
      <trkpt lat="59.25023" lon="17.918482">
        <ele>63</ele>
        <time>2019-11-17T09:52:36Z</time>
      </trkpt>
      <trkpt lat="59.250254" lon="17.918459">
        <ele>62.8</ele>
        <time>2019-11-17T09:52:38Z</time>
      </trkpt>
      <trkpt lat="59.250282" lon="17.918433">
        <ele>62.6</ele>
        <time>2019-11-17T09:52:40Z</time>
      </trkpt>
      <trkpt lat="59.250309" lon="17.918401">
        <ele>62.3</ele>
        <time>2019-11-17T09:52:43Z</time>
      </trkpt>
      <trkpt lat="59.250333" lon="17.918372">
        <ele>62.1</ele>
        <time>2019-11-17T09:52:45Z</time>
      </trkpt>
      <trkpt lat="59.250365" lon="17.918329">
        <ele>61.8</ele>
        <time>2019-11-17T09:52:48Z</time>
      </trkpt>
      <trkpt lat="59.250393" lon="17.918275">
        <ele>61.6</ele>
        <time>2019-11-17T09:52:51Z</time>
      </trkpt>
      <trkpt lat="59.250419" lon="17.918229">
        <ele>61.3</ele>
        <time>2019-11-17T09:52:54Z</time>
      </trkpt>
      <trkpt lat="59.250446" lon="17.918181">
        <ele>61</ele>
        <time>2019-11-17T09:52:56Z</time>
      </trkpt>
      <trkpt lat="59.250472" lon="17.918136">
        <ele>60.8</ele>
        <time>2019-11-17T09:52:58Z</time>
      </trkpt>
      <trkpt lat="59.250497" lon="17.918092">
        <ele>60.6</ele>
        <time>2019-11-17T09:53:01Z</time>
      </trkpt>
      <trkpt lat="59.250521" lon="17.918053">
        <ele>60.4</ele>
        <time>2019-11-17T09:53:03Z</time>
      </trkpt>
      <trkpt lat="59.250546" lon="17.918011">
        <ele>60.3</ele>
        <time>2019-11-17T09:53:05Z</time>
      </trkpt>
      <trkpt lat="59.250567" lon="17.917967">
        <ele>60.1</ele>
        <time>2019-11-17T09:53:08Z</time>
      </trkpt>
      <trkpt lat="59.250592" lon="17.917907">
        <ele>60</ele>
        <time>2019-11-17T09:53:11Z</time>
      </trkpt>
      <trkpt lat="59.25061" lon="17.917857">
        <ele>59.8</ele>
        <time>2019-11-17T09:53:13Z</time>
      </trkpt>
      <trkpt lat="59.250626" lon="17.917803">
        <ele>59.8</ele>
        <time>2019-11-17T09:53:15Z</time>
      </trkpt>
      <trkpt lat="59.250641" lon="17.917757">
        <ele>59.8</ele>
        <time>2019-11-17T09:53:18Z</time>
      </trkpt>
      <trkpt lat="59.250666" lon="17.917701">
        <ele>59.8</ele>
        <time>2019-11-17T09:53:21Z</time>
      </trkpt>
      <trkpt lat="59.250693" lon="17.91768">
        <ele>59.8</ele>
        <time>2019-11-17T09:53:27Z</time>
      </trkpt>
      <trkpt lat="59.250687" lon="17.917622">
        <ele>60</ele>
        <time>2019-11-17T09:53:35Z</time>
      </trkpt>
      <trkpt lat="59.250692" lon="17.917553">
        <ele>60.1</ele>
        <time>2019-11-17T09:53:39Z</time>
      </trkpt>
      <trkpt lat="59.250704" lon="17.917491">
        <ele>60.3</ele>
        <time>2019-11-17T09:53:43Z</time>
      </trkpt>
      <trkpt lat="59.25073" lon="17.91745">
        <ele>60.5</ele>
        <time>2019-11-17T09:53:46Z</time>
      </trkpt>
      <trkpt lat="59.250761" lon="17.917401">
        <ele>60.8</ele>
        <time>2019-11-17T09:53:49Z</time>
      </trkpt>
      <trkpt lat="59.250787" lon="17.917368">
        <ele>61</ele>
        <time>2019-11-17T09:53:52Z</time>
      </trkpt>
      <trkpt lat="59.250814" lon="17.917307">
        <ele>61.3</ele>
        <time>2019-11-17T09:53:56Z</time>
      </trkpt>
      <trkpt lat="59.25084" lon="17.917277">
        <ele>61.6</ele>
        <time>2019-11-17T09:54:00Z</time>
      </trkpt>
      <trkpt lat="59.25087" lon="17.917281">
        <ele>61.9</ele>
        <time>2019-11-17T09:54:06Z</time>
      </trkpt>
      <trkpt lat="59.250861" lon="17.917211">
        <ele>62.3</ele>
        <time>2019-11-17T09:54:25Z</time>
      </trkpt>
      <trkpt lat="59.250857" lon="17.917155">
        <ele>62.6</ele>
        <time>2019-11-17T09:54:27Z</time>
      </trkpt>
      <trkpt lat="59.250874" lon="17.917087">
        <ele>63</ele>
        <time>2019-11-17T09:54:32Z</time>
      </trkpt>
      <trkpt lat="59.250906" lon="17.917026">
        <ele>63.4</ele>
        <time>2019-11-17T09:54:35Z</time>
      </trkpt>
      <trkpt lat="59.250945" lon="17.916938">
        <ele>63.9</ele>
        <time>2019-11-17T09:54:39Z</time>
      </trkpt>
      <trkpt lat="59.250956" lon="17.916911">
        <ele>64.1</ele>
        <time>2019-11-17T09:54:40Z</time>
      </trkpt>
      <trkpt lat="59.250982" lon="17.916866">
        <ele>64.4</ele>
        <time>2019-11-17T09:54:45Z</time>
      </trkpt>
      <trkpt lat="59.250978" lon="17.916806">
        <ele>64.6</ele>
        <time>2019-11-17T09:54:49Z</time>
      </trkpt>
      <trkpt lat="59.250985" lon="17.916748">
        <ele>64.9</ele>
        <time>2019-11-17T09:54:54Z</time>
      </trkpt>
      <trkpt lat="59.250998" lon="17.916697">
        <ele>65</ele>
        <time>2019-11-17T09:55:00Z</time>
      </trkpt>
      <trkpt lat="59.250994" lon="17.916632">
        <ele>65.2</ele>
        <time>2019-11-17T09:55:04Z</time>
      </trkpt>
      <trkpt lat="59.250993" lon="17.916566">
        <ele>65.4</ele>
        <time>2019-11-17T09:55:09Z</time>
      </trkpt>
      <trkpt lat="59.251018" lon="17.916454">
        <ele>65.6</ele>
        <time>2019-11-17T09:55:25Z</time>
      </trkpt>
      <trkpt lat="59.251033" lon="17.91641">
        <ele>65.7</ele>
        <time>2019-11-17T09:55:28Z</time>
      </trkpt>
      <trkpt lat="59.251047" lon="17.916347">
        <ele>65.7</ele>
        <time>2019-11-17T09:55:32Z</time>
      </trkpt>
      <trkpt lat="59.25107" lon="17.916268">
        <ele>65.7</ele>
        <time>2019-11-17T09:55:36Z</time>
      </trkpt>
      <trkpt lat="59.251084" lon="17.916193">
        <ele>65.7</ele>
        <time>2019-11-17T09:55:40Z</time>
      </trkpt>
      <trkpt lat="59.251093" lon="17.916134">
        <ele>65.6</ele>
        <time>2019-11-17T09:55:42Z</time>
      </trkpt>
      <trkpt lat="59.251105" lon="17.916075">
        <ele>65.6</ele>
        <time>2019-11-17T09:55:46Z</time>
      </trkpt>
      <trkpt lat="59.25112" lon="17.915994">
        <ele>65.5</ele>
        <time>2019-11-17T09:55:51Z</time>
      </trkpt>
      <trkpt lat="59.251135" lon="17.915925">
        <ele>65.5</ele>
        <time>2019-11-17T09:55:54Z</time>
      </trkpt>
      <trkpt lat="59.251153" lon="17.915851">
        <ele>65.4</ele>
        <time>2019-11-17T09:55:58Z</time>
      </trkpt>
      <trkpt lat="59.251164" lon="17.915801">
        <ele>65.4</ele>
        <time>2019-11-17T09:56:00Z</time>
      </trkpt>
      <trkpt lat="59.251178" lon="17.915741">
        <ele>65.4</ele>
        <time>2019-11-17T09:56:03Z</time>
      </trkpt>
      <trkpt lat="59.25119" lon="17.915691">
        <ele>65.4</ele>
        <time>2019-11-17T09:56:05Z</time>
      </trkpt>
      <trkpt lat="59.251206" lon="17.915618">
        <ele>65.4</ele>
        <time>2019-11-17T09:56:08Z</time>
      </trkpt>
      <trkpt lat="59.251219" lon="17.915544">
        <ele>65.5</ele>
        <time>2019-11-17T09:56:12Z</time>
      </trkpt>
      <trkpt lat="59.251228" lon="17.915478">
        <ele>65.5</ele>
        <time>2019-11-17T09:56:16Z</time>
      </trkpt>
      <trkpt lat="59.251239" lon="17.915428">
        <ele>65.5</ele>
        <time>2019-11-17T09:56:18Z</time>
      </trkpt>
      <trkpt lat="59.251258" lon="17.91536">
        <ele>65.6</ele>
        <time>2019-11-17T09:56:22Z</time>
      </trkpt>
      <trkpt lat="59.251271" lon="17.9153">
        <ele>65.6</ele>
        <time>2019-11-17T09:56:26Z</time>
      </trkpt>
      <trkpt lat="59.251289" lon="17.91524">
        <ele>65.7</ele>
        <time>2019-11-17T09:56:30Z</time>
      </trkpt>
      <trkpt lat="59.251305" lon="17.915174">
        <ele>65.8</ele>
        <time>2019-11-17T09:56:34Z</time>
      </trkpt>
      <trkpt lat="59.251311" lon="17.915121">
        <ele>65.8</ele>
        <time>2019-11-17T09:56:37Z</time>
      </trkpt>
      <trkpt lat="59.251311" lon="17.915056">
        <ele>65.9</ele>
        <time>2019-11-17T09:56:41Z</time>
      </trkpt>
      <trkpt lat="59.251284" lon="17.915052">
        <ele>66</ele>
        <time>2019-11-17T09:56:50Z</time>
      </trkpt>
      <trkpt lat="59.251256" lon="17.915064">
        <ele>66.1</ele>
        <time>2019-11-17T09:56:55Z</time>
      </trkpt>
      <trkpt lat="59.251252" lon="17.91501">
        <ele>66.2</ele>
        <time>2019-11-17T09:57:06Z</time>
      </trkpt>
      <trkpt lat="59.251284" lon="17.91494">
        <ele>66.4</ele>
        <time>2019-11-17T09:57:18Z</time>
      </trkpt>
      <trkpt lat="59.251295" lon="17.914877">
        <ele>66.5</ele>
        <time>2019-11-17T09:57:23Z</time>
      </trkpt>
      <trkpt lat="59.251306" lon="17.914822">
        <ele>66.6</ele>
        <time>2019-11-17T09:57:27Z</time>
      </trkpt>
      <trkpt lat="59.251315" lon="17.914747">
        <ele>66.7</ele>
        <time>2019-11-17T09:57:32Z</time>
      </trkpt>
      <trkpt lat="59.251325" lon="17.914691">
        <ele>66.8</ele>
        <time>2019-11-17T09:57:35Z</time>
      </trkpt>
      <trkpt lat="59.251341" lon="17.914632">
        <ele>66.9</ele>
        <time>2019-11-17T09:57:39Z</time>
      </trkpt>
      <trkpt lat="59.251361" lon="17.914565">
        <ele>67</ele>
        <time>2019-11-17T09:57:45Z</time>
      </trkpt>
      <trkpt lat="59.25138" lon="17.914524">
        <ele>67</ele>
        <time>2019-11-17T09:57:51Z</time>
      </trkpt>
      <trkpt lat="59.251391" lon="17.914458">
        <ele>67.1</ele>
        <time>2019-11-17T09:57:55Z</time>
      </trkpt>
      <trkpt lat="59.251407" lon="17.91439">
        <ele>67.1</ele>
        <time>2019-11-17T09:57:59Z</time>
      </trkpt>
      <trkpt lat="59.251421" lon="17.914337">
        <ele>67.1</ele>
        <time>2019-11-17T09:58:02Z</time>
      </trkpt>
      <trkpt lat="59.251434" lon="17.914275">
        <ele>67.1</ele>
        <time>2019-11-17T09:58:07Z</time>
      </trkpt>
      <trkpt lat="59.25145" lon="17.914191">
        <ele>67</ele>
        <time>2019-11-17T09:58:12Z</time>
      </trkpt>
      <trkpt lat="59.251435" lon="17.91414">
        <ele>66.9</ele>
        <time>2019-11-17T09:58:22Z</time>
      </trkpt>
      <trkpt lat="59.251423" lon="17.914065">
        <ele>66.8</ele>
        <time>2019-11-17T09:58:27Z</time>
      </trkpt>
      <trkpt lat="59.251434" lon="17.914012">
        <ele>66.7</ele>
        <time>2019-11-17T09:58:30Z</time>
      </trkpt>
      <trkpt lat="59.251459" lon="17.913943">
        <ele>66.6</ele>
        <time>2019-11-17T09:58:34Z</time>
      </trkpt>
      <trkpt lat="59.251478" lon="17.913899">
        <ele>66.6</ele>
        <time>2019-11-17T09:58:37Z</time>
      </trkpt>
      <trkpt lat="59.251505" lon="17.913869">
        <ele>66.5</ele>
        <time>2019-11-17T09:58:41Z</time>
      </trkpt>
      <trkpt lat="59.251524" lon="17.913829">
        <ele>66.4</ele>
        <time>2019-11-17T09:58:43Z</time>
      </trkpt>
      <trkpt lat="59.251538" lon="17.913779">
        <ele>66.4</ele>
        <time>2019-11-17T09:58:47Z</time>
      </trkpt>
      <trkpt lat="59.251547" lon="17.913715">
        <ele>66.3</ele>
        <time>2019-11-17T09:58:51Z</time>
      </trkpt>
      <trkpt lat="59.251539" lon="17.913658">
        <ele>66.3</ele>
        <time>2019-11-17T09:59:01Z</time>
      </trkpt>
      <trkpt lat="59.251558" lon="17.913522">
        <ele>66.2</ele>
        <time>2019-11-17T09:59:11Z</time>
      </trkpt>
      <trkpt lat="59.251573" lon="17.913469">
        <ele>66.1</ele>
        <time>2019-11-17T09:59:14Z</time>
      </trkpt>
      <trkpt lat="59.251594" lon="17.913412">
        <ele>66</ele>
        <time>2019-11-17T09:59:17Z</time>
      </trkpt>
      <trkpt lat="59.251613" lon="17.913365">
        <ele>65.9</ele>
        <time>2019-11-17T09:59:19Z</time>
      </trkpt>
      <trkpt lat="59.251635" lon="17.913314">
        <ele>65.8</ele>
        <time>2019-11-17T09:59:23Z</time>
      </trkpt>
      <trkpt lat="59.251654" lon="17.913272">
        <ele>65.7</ele>
        <time>2019-11-17T09:59:26Z</time>
      </trkpt>
      <trkpt lat="59.251683" lon="17.913223">
        <ele>65.5</ele>
        <time>2019-11-17T09:59:30Z</time>
      </trkpt>
      <trkpt lat="59.251706" lon="17.913174">
        <ele>65.3</ele>
        <time>2019-11-17T09:59:34Z</time>
      </trkpt>
      <trkpt lat="59.251727" lon="17.913128">
        <ele>65.1</ele>
        <time>2019-11-17T09:59:37Z</time>
      </trkpt>
      <trkpt lat="59.251747" lon="17.913074">
        <ele>65</ele>
        <time>2019-11-17T09:59:42Z</time>
      </trkpt>
      <trkpt lat="59.251761" lon="17.913019">
        <ele>64.8</ele>
        <time>2019-11-17T09:59:45Z</time>
      </trkpt>
      <trkpt lat="59.25178" lon="17.912957">
        <ele>64.8</ele>
        <time>2019-11-17T09:59:50Z</time>
      </trkpt>
      <trkpt lat="59.251805" lon="17.912908">
        <ele>64.8</ele>
        <time>2019-11-17T09:59:56Z</time>
      </trkpt>
      <trkpt lat="59.251804" lon="17.912834">
        <ele>64.7</ele>
        <time>2019-11-17T10:00:05Z</time>
      </trkpt>
      <trkpt lat="59.25184" lon="17.91274">
        <ele>64.6</ele>
        <time>2019-11-17T10:00:13Z</time>
      </trkpt>
      <trkpt lat="59.251862" lon="17.912687">
        <ele>64.5</ele>
        <time>2019-11-17T10:00:18Z</time>
      </trkpt>
      <trkpt lat="59.251882" lon="17.912641">
        <ele>64.5</ele>
        <time>2019-11-17T10:00:22Z</time>
      </trkpt>
      <trkpt lat="59.251902" lon="17.912589">
        <ele>64.4</ele>
        <time>2019-11-17T10:00:26Z</time>
      </trkpt>
      <trkpt lat="59.251921" lon="17.912522">
        <ele>64.4</ele>
        <time>2019-11-17T10:00:31Z</time>
      </trkpt>
      <trkpt lat="59.251927" lon="17.912464">
        <ele>64.4</ele>
        <time>2019-11-17T10:00:35Z</time>
      </trkpt>
      <trkpt lat="59.251937" lon="17.912402">
        <ele>64.4</ele>
        <time>2019-11-17T10:00:39Z</time>
      </trkpt>
      <trkpt lat="59.251952" lon="17.912352">
        <ele>64.5</ele>
        <time>2019-11-17T10:00:43Z</time>
      </trkpt>
      <trkpt lat="59.251967" lon="17.912291">
        <ele>64.5</ele>
        <time>2019-11-17T10:00:47Z</time>
      </trkpt>
      <trkpt lat="59.251975" lon="17.912232">
        <ele>64.5</ele>
        <time>2019-11-17T10:00:51Z</time>
      </trkpt>
      <trkpt lat="59.251985" lon="17.912175">
        <ele>64.6</ele>
        <time>2019-11-17T10:00:55Z</time>
      </trkpt>
      <trkpt lat="59.251997" lon="17.912119">
        <ele>64.6</ele>
        <time>2019-11-17T10:00:59Z</time>
      </trkpt>
      <trkpt lat="59.252012" lon="17.912058">
        <ele>64.6</ele>
        <time>2019-11-17T10:01:03Z</time>
      </trkpt>
      <trkpt lat="59.252025" lon="17.912009">
        <ele>64.7</ele>
        <time>2019-11-17T10:01:08Z</time>
      </trkpt>
      <trkpt lat="59.252048" lon="17.911961">
        <ele>64.8</ele>
        <time>2019-11-17T10:01:13Z</time>
      </trkpt>
      <trkpt lat="59.252067" lon="17.91192">
        <ele>64.9</ele>
        <time>2019-11-17T10:01:15Z</time>
      </trkpt>
      <trkpt lat="59.252087" lon="17.911868">
        <ele>64.9</ele>
        <time>2019-11-17T10:01:17Z</time>
      </trkpt>
      <trkpt lat="59.25211" lon="17.911811">
        <ele>64.9</ele>
        <time>2019-11-17T10:01:20Z</time>
      </trkpt>
      <trkpt lat="59.252128" lon="17.911767">
        <ele>65</ele>
        <time>2019-11-17T10:01:21Z</time>
      </trkpt>
      <trkpt lat="59.252154" lon="17.911714">
        <ele>65</ele>
        <time>2019-11-17T10:01:23Z</time>
      </trkpt>
      <trkpt lat="59.252173" lon="17.911668">
        <ele>65</ele>
        <time>2019-11-17T10:01:26Z</time>
      </trkpt>
      <trkpt lat="59.252189" lon="17.911619">
        <ele>65</ele>
        <time>2019-11-17T10:01:27Z</time>
      </trkpt>
      <trkpt lat="59.252216" lon="17.91156">
        <ele>65</ele>
        <time>2019-11-17T10:01:29Z</time>
      </trkpt>
      <trkpt lat="59.25225" lon="17.911498">
        <ele>65</ele>
        <time>2019-11-17T10:01:32Z</time>
      </trkpt>
      <trkpt lat="59.25228" lon="17.911441">
        <ele>65</ele>
        <time>2019-11-17T10:01:35Z</time>
      </trkpt>
      <trkpt lat="59.252301" lon="17.911394">
        <ele>64.9</ele>
        <time>2019-11-17T10:01:37Z</time>
      </trkpt>
      <trkpt lat="59.252319" lon="17.911344">
        <ele>64.9</ele>
        <time>2019-11-17T10:01:39Z</time>
      </trkpt>
      <trkpt lat="59.252335" lon="17.911284">
        <ele>64.9</ele>
        <time>2019-11-17T10:01:42Z</time>
      </trkpt>
      <trkpt lat="59.252353" lon="17.911225">
        <ele>64.9</ele>
        <time>2019-11-17T10:01:45Z</time>
      </trkpt>
      <trkpt lat="59.252374" lon="17.911144">
        <ele>64.8</ele>
        <time>2019-11-17T10:01:48Z</time>
      </trkpt>
      <trkpt lat="59.252381" lon="17.911083">
        <ele>64.8</ele>
        <time>2019-11-17T10:01:50Z</time>
      </trkpt>
      <trkpt lat="59.252395" lon="17.911005">
        <ele>64.8</ele>
        <time>2019-11-17T10:01:54Z</time>
      </trkpt>
      <trkpt lat="59.252407" lon="17.91093">
        <ele>64.7</ele>
        <time>2019-11-17T10:01:56Z</time>
      </trkpt>
      <trkpt lat="59.252415" lon="17.910837">
        <ele>64.7</ele>
        <time>2019-11-17T10:02:00Z</time>
      </trkpt>
      <trkpt lat="59.252424" lon="17.910779">
        <ele>64.7</ele>
        <time>2019-11-17T10:02:03Z</time>
      </trkpt>
      <trkpt lat="59.252432" lon="17.910714">
        <ele>64.6</ele>
        <time>2019-11-17T10:02:06Z</time>
      </trkpt>
      <trkpt lat="59.25244" lon="17.910647">
        <ele>64.6</ele>
        <time>2019-11-17T10:02:10Z</time>
      </trkpt>
      <trkpt lat="59.252445" lon="17.910582">
        <ele>64.5</ele>
        <time>2019-11-17T10:02:15Z</time>
      </trkpt>
      <trkpt lat="59.252471" lon="17.910531">
        <ele>64.5</ele>
        <time>2019-11-17T10:02:19Z</time>
      </trkpt>
      <trkpt lat="59.252492" lon="17.910485">
        <ele>64.5</ele>
        <time>2019-11-17T10:02:25Z</time>
      </trkpt>
      <trkpt lat="59.252509" lon="17.910536">
        <ele>64.5</ele>
        <time>2019-11-17T10:02:37Z</time>
      </trkpt>
      <trkpt lat="59.252538" lon="17.910559">
        <ele>64.5</ele>
        <time>2019-11-17T10:02:42Z</time>
      </trkpt>
      <trkpt lat="59.252566" lon="17.910548">
        <ele>64.4</ele>
        <time>2019-11-17T10:02:49Z</time>
      </trkpt>
      <trkpt lat="59.252592" lon="17.910518">
        <ele>64.4</ele>
        <time>2019-11-17T10:02:52Z</time>
      </trkpt>
      <trkpt lat="59.252623" lon="17.910464">
        <ele>64.4</ele>
        <time>2019-11-17T10:02:55Z</time>
      </trkpt>
      <trkpt lat="59.252648" lon="17.910422">
        <ele>64.4</ele>
        <time>2019-11-17T10:02:57Z</time>
      </trkpt>
      <trkpt lat="59.252672" lon="17.910375">
        <ele>64.4</ele>
        <time>2019-11-17T10:02:59Z</time>
      </trkpt>
      <trkpt lat="59.252696" lon="17.910332">
        <ele>64.4</ele>
        <time>2019-11-17T10:03:01Z</time>
      </trkpt>
      <trkpt lat="59.252716" lon="17.910292">
        <ele>64.3</ele>
        <time>2019-11-17T10:03:04Z</time>
      </trkpt>
      <trkpt lat="59.252743" lon="17.910239">
        <ele>64.3</ele>
        <time>2019-11-17T10:03:06Z</time>
      </trkpt>
      <trkpt lat="59.252765" lon="17.9102">
        <ele>64.3</ele>
        <time>2019-11-17T10:03:09Z</time>
      </trkpt>
      <trkpt lat="59.252789" lon="17.910158">
        <ele>64.3</ele>
        <time>2019-11-17T10:03:11Z</time>
      </trkpt>
      <trkpt lat="59.25281" lon="17.91012">
        <ele>64.3</ele>
        <time>2019-11-17T10:03:14Z</time>
      </trkpt>
      <trkpt lat="59.252834" lon="17.910077">
        <ele>64.3</ele>
        <time>2019-11-17T10:03:16Z</time>
      </trkpt>
      <trkpt lat="59.252857" lon="17.910029">
        <ele>64.4</ele>
        <time>2019-11-17T10:03:20Z</time>
      </trkpt>
      <trkpt lat="59.252876" lon="17.909978">
        <ele>64.4</ele>
        <time>2019-11-17T10:03:23Z</time>
      </trkpt>
      <trkpt lat="59.252896" lon="17.909927">
        <ele>64.4</ele>
        <time>2019-11-17T10:03:26Z</time>
      </trkpt>
      <trkpt lat="59.252912" lon="17.909883">
        <ele>64.4</ele>
        <time>2019-11-17T10:03:29Z</time>
      </trkpt>
      <trkpt lat="59.252939" lon="17.909839">
        <ele>64.5</ele>
        <time>2019-11-17T10:03:35Z</time>
      </trkpt>
      <trkpt lat="59.252945" lon="17.909782">
        <ele>64.5</ele>
        <time>2019-11-17T10:03:40Z</time>
      </trkpt>
      <trkpt lat="59.252947" lon="17.909715">
        <ele>64.5</ele>
        <time>2019-11-17T10:03:44Z</time>
      </trkpt>
      <trkpt lat="59.252952" lon="17.909649">
        <ele>64.6</ele>
        <time>2019-11-17T10:03:48Z</time>
      </trkpt>
      <trkpt lat="59.252969" lon="17.909583">
        <ele>64.6</ele>
        <time>2019-11-17T10:03:51Z</time>
      </trkpt>
      <trkpt lat="59.252991" lon="17.909539">
        <ele>64.7</ele>
        <time>2019-11-17T10:03:54Z</time>
      </trkpt>
      <trkpt lat="59.253018" lon="17.909503">
        <ele>64.8</ele>
        <time>2019-11-17T10:03:56Z</time>
      </trkpt>
      <trkpt lat="59.253045" lon="17.909476">
        <ele>64.8</ele>
        <time>2019-11-17T10:03:59Z</time>
      </trkpt>
      <trkpt lat="59.253082" lon="17.909438">
        <ele>64.9</ele>
        <time>2019-11-17T10:04:02Z</time>
      </trkpt>
      <trkpt lat="59.253116" lon="17.90942">
        <ele>64.9</ele>
        <time>2019-11-17T10:04:06Z</time>
      </trkpt>
      <trkpt lat="59.253146" lon="17.909414">
        <ele>65</ele>
        <time>2019-11-17T10:04:11Z</time>
      </trkpt>
      <trkpt lat="59.25317" lon="17.909372">
        <ele>65</ele>
        <time>2019-11-17T10:04:16Z</time>
      </trkpt>
      <trkpt lat="59.253191" lon="17.909324">
        <ele>65</ele>
        <time>2019-11-17T10:04:20Z</time>
      </trkpt>
      <trkpt lat="59.253218" lon="17.909267">
        <ele>65.1</ele>
        <time>2019-11-17T10:04:23Z</time>
      </trkpt>
      <trkpt lat="59.253244" lon="17.909238">
        <ele>65.1</ele>
        <time>2019-11-17T10:04:28Z</time>
      </trkpt>
      <trkpt lat="59.25327" lon="17.909197">
        <ele>65.1</ele>
        <time>2019-11-17T10:04:35Z</time>
      </trkpt>
      <trkpt lat="59.253301" lon="17.909187">
        <ele>65.2</ele>
        <time>2019-11-17T10:04:39Z</time>
      </trkpt>
      <trkpt lat="59.253332" lon="17.90918">
        <ele>65.2</ele>
        <time>2019-11-17T10:04:45Z</time>
      </trkpt>
      <trkpt lat="59.25336" lon="17.909172">
        <ele>65.2</ele>
        <time>2019-11-17T10:04:47Z</time>
      </trkpt>
      <trkpt lat="59.253395" lon="17.909148">
        <ele>65.3</ele>
        <time>2019-11-17T10:04:51Z</time>
      </trkpt>
      <trkpt lat="59.253422" lon="17.909102">
        <ele>65.3</ele>
        <time>2019-11-17T10:04:54Z</time>
      </trkpt>
      <trkpt lat="59.253449" lon="17.909082">
        <ele>65.3</ele>
        <time>2019-11-17T10:04:57Z</time>
      </trkpt>
      <trkpt lat="59.253485" lon="17.909019">
        <ele>65.3</ele>
        <time>2019-11-17T10:05:01Z</time>
      </trkpt>
      <trkpt lat="59.253507" lon="17.908963">
        <ele>65.4</ele>
        <time>2019-11-17T10:05:05Z</time>
      </trkpt>
      <trkpt lat="59.253529" lon="17.90891">
        <ele>65.4</ele>
        <time>2019-11-17T10:05:09Z</time>
      </trkpt>
      <trkpt lat="59.253543" lon="17.908851">
        <ele>65.4</ele>
        <time>2019-11-17T10:05:13Z</time>
      </trkpt>
      <trkpt lat="59.253616" lon="17.908757">
        <ele>65.5</ele>
        <time>2019-11-17T10:05:27Z</time>
      </trkpt>
      <trkpt lat="59.253644" lon="17.908746">
        <ele>65.5</ele>
        <time>2019-11-17T10:05:30Z</time>
      </trkpt>
      <trkpt lat="59.253691" lon="17.908725">
        <ele>65.6</ele>
        <time>2019-11-17T10:05:32Z</time>
      </trkpt>
      <trkpt lat="59.253734" lon="17.908701">
        <ele>65.6</ele>
        <time>2019-11-17T10:05:34Z</time>
      </trkpt>
      <trkpt lat="59.253774" lon="17.908677">
        <ele>65.7</ele>
        <time>2019-11-17T10:05:36Z</time>
      </trkpt>
      <trkpt lat="59.253818" lon="17.908651">
        <ele>65.7</ele>
        <time>2019-11-17T10:05:38Z</time>
      </trkpt>
      <trkpt lat="59.253862" lon="17.908638">
        <ele>65.7</ele>
        <time>2019-11-17T10:05:41Z</time>
      </trkpt>
      <trkpt lat="59.253894" lon="17.908638">
        <ele>65.7</ele>
        <time>2019-11-17T10:05:43Z</time>
      </trkpt>
      <trkpt lat="59.253923" lon="17.908621">
        <ele>65.7</ele>
        <time>2019-11-17T10:05:47Z</time>
      </trkpt>
      <trkpt lat="59.253951" lon="17.908597">
        <ele>65.7</ele>
        <time>2019-11-17T10:05:51Z</time>
      </trkpt>
      <trkpt lat="59.253978" lon="17.90858">
        <ele>66</ele>
        <time>2019-11-17T10:05:55Z</time>
      </trkpt>
      <trkpt lat="59.254001" lon="17.908699">
        <ele>66.1</ele>
        <time>2019-11-17T10:06:30Z</time>
      </trkpt>
      <trkpt lat="59.253981" lon="17.908775">
        <ele>66.1</ele>
        <time>2019-11-17T10:06:32Z</time>
      </trkpt>
      <trkpt lat="59.253957" lon="17.908843">
        <ele>66.2</ele>
        <time>2019-11-17T10:06:35Z</time>
      </trkpt>
      <trkpt lat="59.253936" lon="17.908907">
        <ele>66.2</ele>
        <time>2019-11-17T10:06:37Z</time>
      </trkpt>
      <trkpt lat="59.253921" lon="17.908972">
        <ele>66.2</ele>
        <time>2019-11-17T10:06:39Z</time>
      </trkpt>
      <trkpt lat="59.253907" lon="17.909039">
        <ele>66.3</ele>
        <time>2019-11-17T10:06:42Z</time>
      </trkpt>
      <trkpt lat="59.253897" lon="17.909099">
        <ele>66.2</ele>
        <time>2019-11-17T10:06:44Z</time>
      </trkpt>
      <trkpt lat="59.253892" lon="17.909163">
        <ele>66.2</ele>
        <time>2019-11-17T10:06:46Z</time>
      </trkpt>
      <trkpt lat="59.253885" lon="17.909236">
        <ele>66.2</ele>
        <time>2019-11-17T10:06:49Z</time>
      </trkpt>
      <trkpt lat="59.253872" lon="17.909303">
        <ele>66.2</ele>
        <time>2019-11-17T10:06:52Z</time>
      </trkpt>
      <trkpt lat="59.253862" lon="17.909358">
        <ele>66.1</ele>
        <time>2019-11-17T10:06:55Z</time>
      </trkpt>
      <trkpt lat="59.253853" lon="17.909414">
        <ele>66.1</ele>
        <time>2019-11-17T10:06:57Z</time>
      </trkpt>
      <trkpt lat="59.253847" lon="17.909466">
        <ele>66.1</ele>
        <time>2019-11-17T10:07:00Z</time>
      </trkpt>
      <trkpt lat="59.253843" lon="17.909522">
        <ele>66.1</ele>
        <time>2019-11-17T10:07:02Z</time>
      </trkpt>
      <trkpt lat="59.253838" lon="17.909584">
        <ele>66</ele>
        <time>2019-11-17T10:07:07Z</time>
      </trkpt>
      <trkpt lat="59.253862" lon="17.909608">
        <ele>66</ele>
        <time>2019-11-17T10:07:25Z</time>
      </trkpt>
      <trkpt lat="59.25384" lon="17.909667">
        <ele>65.9</ele>
        <time>2019-11-17T10:07:42Z</time>
      </trkpt>
      <trkpt lat="59.253845" lon="17.909726">
        <ele>65.9</ele>
        <time>2019-11-17T10:07:45Z</time>
      </trkpt>
      <trkpt lat="59.253864" lon="17.909796">
        <ele>65.8</ele>
        <time>2019-11-17T10:07:48Z</time>
      </trkpt>
      <trkpt lat="59.253838" lon="17.909832">
        <ele>65.7</ele>
        <time>2019-11-17T10:09:02Z</time>
      </trkpt>
      <trkpt lat="59.253822" lon="17.909888">
        <ele>65.7</ele>
        <time>2019-11-17T10:09:06Z</time>
      </trkpt>
      <trkpt lat="59.253807" lon="17.909956">
        <ele>65.6</ele>
        <time>2019-11-17T10:09:08Z</time>
      </trkpt>
      <trkpt lat="59.253797" lon="17.910016">
        <ele>65.5</ele>
        <time>2019-11-17T10:09:10Z</time>
      </trkpt>
      <trkpt lat="59.253789" lon="17.910081">
        <ele>65.5</ele>
        <time>2019-11-17T10:09:12Z</time>
      </trkpt>
      <trkpt lat="59.253786" lon="17.910154">
        <ele>65.4</ele>
        <time>2019-11-17T10:09:15Z</time>
      </trkpt>
      <trkpt lat="59.253804" lon="17.910224">
        <ele>65.3</ele>
        <time>2019-11-17T10:09:20Z</time>
      </trkpt>
      <trkpt lat="59.253824" lon="17.910271">
        <ele>64.7</ele>
        <time>2019-11-17T10:09:24Z</time>
      </trkpt>
      <trkpt lat="59.253928" lon="17.910358">
        <ele>63.8</ele>
        <time>2019-11-17T10:10:11Z</time>
      </trkpt>
      <trkpt lat="59.253939" lon="17.910418">
        <ele>63.6</ele>
        <time>2019-11-17T10:10:19Z</time>
      </trkpt>
      <trkpt lat="59.25395" lon="17.910469">
        <ele>63.5</ele>
        <time>2019-11-17T10:10:23Z</time>
      </trkpt>
      <trkpt lat="59.253959" lon="17.91052">
        <ele>63.3</ele>
        <time>2019-11-17T10:10:26Z</time>
      </trkpt>
      <trkpt lat="59.253964" lon="17.910579">
        <ele>63.2</ele>
        <time>2019-11-17T10:10:28Z</time>
      </trkpt>
      <trkpt lat="59.253971" lon="17.910636">
        <ele>63.1</ele>
        <time>2019-11-17T10:10:31Z</time>
      </trkpt>
      <trkpt lat="59.253979" lon="17.910701">
        <ele>62.9</ele>
        <time>2019-11-17T10:10:33Z</time>
      </trkpt>
      <trkpt lat="59.253989" lon="17.910758">
        <ele>62.7</ele>
        <time>2019-11-17T10:10:36Z</time>
      </trkpt>
      <trkpt lat="59.254002" lon="17.910816">
        <ele>62.6</ele>
        <time>2019-11-17T10:10:39Z</time>
      </trkpt>
      <trkpt lat="59.254019" lon="17.910865">
        <ele>62.4</ele>
        <time>2019-11-17T10:10:43Z</time>
      </trkpt>
      <trkpt lat="59.254038" lon="17.910907">
        <ele>62.3</ele>
        <time>2019-11-17T10:10:46Z</time>
      </trkpt>
      <trkpt lat="59.254052" lon="17.910967">
        <ele>62.1</ele>
        <time>2019-11-17T10:10:50Z</time>
      </trkpt>
      <trkpt lat="59.254063" lon="17.911016">
        <ele>62</ele>
        <time>2019-11-17T10:10:55Z</time>
      </trkpt>
      <trkpt lat="59.254082" lon="17.911069">
        <ele>61.8</ele>
        <time>2019-11-17T10:11:02Z</time>
      </trkpt>
      <trkpt lat="59.254108" lon="17.911106">
        <ele>61.7</ele>
        <time>2019-11-17T10:11:08Z</time>
      </trkpt>
      <trkpt lat="59.254135" lon="17.911129">
        <ele>61.5</ele>
        <time>2019-11-17T10:11:13Z</time>
      </trkpt>
      <trkpt lat="59.254164" lon="17.91112">
        <ele>61.5</ele>
        <time>2019-11-17T10:11:16Z</time>
      </trkpt>
      <trkpt lat="59.254194" lon="17.911134">
        <ele>61.4</ele>
        <time>2019-11-17T10:11:21Z</time>
      </trkpt>
      <trkpt lat="59.254209" lon="17.911187">
        <ele>61.3</ele>
        <time>2019-11-17T10:11:26Z</time>
      </trkpt>
      <trkpt lat="59.254219" lon="17.911254">
        <ele>61.1</ele>
        <time>2019-11-17T10:11:31Z</time>
      </trkpt>
      <trkpt lat="59.254226" lon="17.911319">
        <ele>60.9</ele>
        <time>2019-11-17T10:11:36Z</time>
      </trkpt>
      <trkpt lat="59.254234" lon="17.911375">
        <ele>60.8</ele>
        <time>2019-11-17T10:11:41Z</time>
      </trkpt>
      <trkpt lat="59.254249" lon="17.911443">
        <ele>60.8</ele>
        <time>2019-11-17T10:11:46Z</time>
      </trkpt>
      <trkpt lat="59.25426" lon="17.911507">
        <ele>60.8</ele>
        <time>2019-11-17T10:11:52Z</time>
      </trkpt>
      <trkpt lat="59.254265" lon="17.911568">
        <ele>60.9</ele>
        <time>2019-11-17T10:11:59Z</time>
      </trkpt>
      <trkpt lat="59.254272" lon="17.911621">
        <ele>61</ele>
        <time>2019-11-17T10:12:06Z</time>
      </trkpt>
      <trkpt lat="59.254354" lon="17.911759">
        <ele>61.3</ele>
        <time>2019-11-17T10:20:24Z</time>
      </trkpt>
      <trkpt lat="59.254375" lon="17.911804">
        <ele>61.5</ele>
        <time>2019-11-17T10:20:31Z</time>
      </trkpt>
      <trkpt lat="59.254387" lon="17.91187">
        <ele>61.8</ele>
        <time>2019-11-17T10:20:39Z</time>
      </trkpt>
      <trkpt lat="59.254387" lon="17.911932">
        <ele>61.8</ele>
        <time>2019-11-17T10:20:43Z</time>
      </trkpt>
      <trkpt lat="59.254391" lon="17.911992">
        <ele>61.7</ele>
        <time>2019-11-17T10:20:46Z</time>
      </trkpt>
      <trkpt lat="59.254407" lon="17.912057">
        <ele>61.6</ele>
        <time>2019-11-17T10:20:50Z</time>
      </trkpt>
      <trkpt lat="59.254414" lon="17.912109">
        <ele>61.5</ele>
        <time>2019-11-17T10:20:55Z</time>
      </trkpt>
      <trkpt lat="59.254413" lon="17.912163">
        <ele>61.4</ele>
        <time>2019-11-17T10:21:03Z</time>
      </trkpt>
      <trkpt lat="59.254412" lon="17.912228">
        <ele>61.4</ele>
        <time>2019-11-17T10:21:10Z</time>
      </trkpt>
      <trkpt lat="59.254403" lon="17.912286">
        <ele>61.3</ele>
        <time>2019-11-17T10:21:16Z</time>
      </trkpt>
      <trkpt lat="59.254397" lon="17.912349">
        <ele>61.3</ele>
        <time>2019-11-17T10:21:21Z</time>
      </trkpt>
      <trkpt lat="59.254422" lon="17.912409">
        <ele>61.2</ele>
        <time>2019-11-17T10:21:53Z</time>
      </trkpt>
      <trkpt lat="59.254443" lon="17.912466">
        <ele>61</ele>
        <time>2019-11-17T10:21:59Z</time>
      </trkpt>
      <trkpt lat="59.254457" lon="17.912513">
        <ele>60.8</ele>
        <time>2019-11-17T10:22:05Z</time>
      </trkpt>
      <trkpt lat="59.25448" lon="17.91256">
        <ele>60.7</ele>
        <time>2019-11-17T10:22:13Z</time>
      </trkpt>
      <trkpt lat="59.254514" lon="17.912549">
        <ele>60.6</ele>
        <time>2019-11-17T10:22:18Z</time>
      </trkpt>
      <trkpt lat="59.254546" lon="17.912524">
        <ele>60.5</ele>
        <time>2019-11-17T10:22:22Z</time>
      </trkpt>
      <trkpt lat="59.254575" lon="17.912495">
        <ele>60.4</ele>
        <time>2019-11-17T10:22:26Z</time>
      </trkpt>
      <trkpt lat="59.254603" lon="17.912508">
        <ele>60.4</ele>
        <time>2019-11-17T10:22:31Z</time>
      </trkpt>
      <trkpt lat="59.25463" lon="17.912518">
        <ele>60.4</ele>
        <time>2019-11-17T10:22:36Z</time>
      </trkpt>
      <trkpt lat="59.254661" lon="17.912511">
        <ele>60.5</ele>
        <time>2019-11-17T10:22:41Z</time>
      </trkpt>
      <trkpt lat="59.25469" lon="17.912509">
        <ele>60.6</ele>
        <time>2019-11-17T10:22:47Z</time>
      </trkpt>
      <trkpt lat="59.254715" lon="17.91253">
        <ele>60.7</ele>
        <time>2019-11-17T10:22:52Z</time>
      </trkpt>
      <trkpt lat="59.254742" lon="17.912564">
        <ele>60.9</ele>
        <time>2019-11-17T10:22:57Z</time>
      </trkpt>
      <trkpt lat="59.254771" lon="17.912604">
        <ele>60.9</ele>
        <time>2019-11-17T10:23:02Z</time>
      </trkpt>
      <trkpt lat="59.254794" lon="17.912632">
        <ele>60.9</ele>
        <time>2019-11-17T10:23:06Z</time>
      </trkpt>
      <trkpt lat="59.254818" lon="17.912672">
        <ele>61</ele>
        <time>2019-11-17T10:23:17Z</time>
      </trkpt>
      <trkpt lat="59.254874" lon="17.912731">
        <ele>60.9</ele>
        <time>2019-11-17T10:23:29Z</time>
      </trkpt>
      <trkpt lat="59.254899" lon="17.912747">
        <ele>60.8</ele>
        <time>2019-11-17T10:23:31Z</time>
      </trkpt>
      <trkpt lat="59.254923" lon="17.912778">
        <ele>60.8</ele>
        <time>2019-11-17T10:23:36Z</time>
      </trkpt>
      <trkpt lat="59.25494" lon="17.912826">
        <ele>60.8</ele>
        <time>2019-11-17T10:23:41Z</time>
      </trkpt>
      <trkpt lat="59.255019" lon="17.912922">
        <ele>60.9</ele>
        <time>2019-11-17T10:24:01Z</time>
      </trkpt>
      <trkpt lat="59.255046" lon="17.912956">
        <ele>60.9</ele>
        <time>2019-11-17T10:24:06Z</time>
      </trkpt>
      <trkpt lat="59.255068" lon="17.913">
        <ele>61</ele>
        <time>2019-11-17T10:24:11Z</time>
      </trkpt>
      <trkpt lat="59.255091" lon="17.913044">
        <ele>61</ele>
        <time>2019-11-17T10:24:15Z</time>
      </trkpt>
      <trkpt lat="59.255112" lon="17.913088">
        <ele>60.9</ele>
        <time>2019-11-17T10:24:19Z</time>
      </trkpt>
      <trkpt lat="59.255122" lon="17.913146">
        <ele>60.9</ele>
        <time>2019-11-17T10:24:21Z</time>
      </trkpt>
      <trkpt lat="59.255132" lon="17.913203">
        <ele>60.8</ele>
        <time>2019-11-17T10:24:24Z</time>
      </trkpt>
      <trkpt lat="59.255144" lon="17.913275">
        <ele>60.8</ele>
        <time>2019-11-17T10:24:29Z</time>
      </trkpt>
      <trkpt lat="59.255154" lon="17.913347">
        <ele>61</ele>
        <time>2019-11-17T10:24:34Z</time>
      </trkpt>
      <trkpt lat="59.255168" lon="17.913411">
        <ele>61.1</ele>
        <time>2019-11-17T10:24:38Z</time>
      </trkpt>
      <trkpt lat="59.255185" lon="17.913456">
        <ele>61.1</ele>
        <time>2019-11-17T10:24:41Z</time>
      </trkpt>
      <trkpt lat="59.255203" lon="17.913498">
        <ele>61.2</ele>
        <time>2019-11-17T10:24:44Z</time>
      </trkpt>
      <trkpt lat="59.255224" lon="17.913555">
        <ele>61.3</ele>
        <time>2019-11-17T10:24:49Z</time>
      </trkpt>
      <trkpt lat="59.255268" lon="17.913632">
        <ele>61.4</ele>
        <time>2019-11-17T10:24:58Z</time>
      </trkpt>
      <trkpt lat="59.255287" lon="17.913677">
        <ele>61.5</ele>
        <time>2019-11-17T10:25:02Z</time>
      </trkpt>
      <trkpt lat="59.255304" lon="17.913723">
        <ele>61.5</ele>
        <time>2019-11-17T10:25:06Z</time>
      </trkpt>
      <trkpt lat="59.255327" lon="17.913767">
        <ele>61.6</ele>
        <time>2019-11-17T10:25:10Z</time>
      </trkpt>
      <trkpt lat="59.255359" lon="17.913812">
        <ele>61.7</ele>
        <time>2019-11-17T10:25:14Z</time>
      </trkpt>
      <trkpt lat="59.255394" lon="17.913849">
        <ele>61.8</ele>
        <time>2019-11-17T10:25:21Z</time>
      </trkpt>
      <trkpt lat="59.255419" lon="17.913897">
        <ele>61.8</ele>
        <time>2019-11-17T10:25:25Z</time>
      </trkpt>
      <trkpt lat="59.255443" lon="17.913956">
        <ele>61.8</ele>
        <time>2019-11-17T10:25:30Z</time>
      </trkpt>
      <trkpt lat="59.255458" lon="17.914078">
        <ele>61.8</ele>
        <time>2019-11-17T10:25:42Z</time>
      </trkpt>
      <trkpt lat="59.255453" lon="17.914132">
        <ele>61.8</ele>
        <time>2019-11-17T10:25:45Z</time>
      </trkpt>
      <trkpt lat="59.255444" lon="17.914191">
        <ele>61.8</ele>
        <time>2019-11-17T10:25:53Z</time>
      </trkpt>
      <trkpt lat="59.255419" lon="17.914221">
        <ele>61.8</ele>
        <time>2019-11-17T10:26:00Z</time>
      </trkpt>
      <trkpt lat="59.255393" lon="17.914241">
        <ele>61.8</ele>
        <time>2019-11-17T10:26:04Z</time>
      </trkpt>
      <trkpt lat="59.255362" lon="17.914269">
        <ele>61.8</ele>
        <time>2019-11-17T10:26:09Z</time>
      </trkpt>
      <trkpt lat="59.25534" lon="17.9143">
        <ele>61.8</ele>
        <time>2019-11-17T10:26:13Z</time>
      </trkpt>
      <trkpt lat="59.255322" lon="17.91436">
        <ele>61.8</ele>
        <time>2019-11-17T10:26:18Z</time>
      </trkpt>
      <trkpt lat="59.255311" lon="17.914427">
        <ele>61.8</ele>
        <time>2019-11-17T10:26:23Z</time>
      </trkpt>
      <trkpt lat="59.255292" lon="17.914491">
        <ele>61.7</ele>
        <time>2019-11-17T10:26:29Z</time>
      </trkpt>
      <trkpt lat="59.255274" lon="17.914531">
        <ele>61.7</ele>
        <time>2019-11-17T10:26:32Z</time>
      </trkpt>
      <trkpt lat="59.255251" lon="17.914588">
        <ele>61.7</ele>
        <time>2019-11-17T10:26:36Z</time>
      </trkpt>
      <trkpt lat="59.255243" lon="17.914656">
        <ele>61.6</ele>
        <time>2019-11-17T10:26:41Z</time>
      </trkpt>
      <trkpt lat="59.25523" lon="17.91472">
        <ele>61.5</ele>
        <time>2019-11-17T10:26:47Z</time>
      </trkpt>
      <trkpt lat="59.25521" lon="17.91476">
        <ele>61.5</ele>
        <time>2019-11-17T10:26:54Z</time>
      </trkpt>
      <trkpt lat="59.255185" lon="17.914816">
        <ele>61.4</ele>
        <time>2019-11-17T10:27:02Z</time>
      </trkpt>
      <trkpt lat="59.255166" lon="17.914863">
        <ele>61.3</ele>
        <time>2019-11-17T10:27:08Z</time>
      </trkpt>
      <trkpt lat="59.255149" lon="17.914911">
        <ele>61.3</ele>
        <time>2019-11-17T10:27:14Z</time>
      </trkpt>
      <trkpt lat="59.255141" lon="17.914969">
        <ele>61.3</ele>
        <time>2019-11-17T10:27:19Z</time>
      </trkpt>
      <trkpt lat="59.255128" lon="17.915021">
        <ele>61.3</ele>
        <time>2019-11-17T10:27:25Z</time>
      </trkpt>
      <trkpt lat="59.255103" lon="17.915061">
        <ele>61.3</ele>
        <time>2019-11-17T10:27:30Z</time>
      </trkpt>
      <trkpt lat="59.255087" lon="17.915108">
        <ele>61.4</ele>
        <time>2019-11-17T10:27:35Z</time>
      </trkpt>
      <trkpt lat="59.255062" lon="17.915135">
        <ele>61.5</ele>
        <time>2019-11-17T10:27:39Z</time>
      </trkpt>
      <trkpt lat="59.25504" lon="17.915165">
        <ele>61.5</ele>
        <time>2019-11-17T10:27:48Z</time>
      </trkpt>
      <trkpt lat="59.255024" lon="17.915224">
        <ele>61.7</ele>
        <time>2019-11-17T10:27:54Z</time>
      </trkpt>
      <trkpt lat="59.255011" lon="17.915282">
        <ele>61.8</ele>
        <time>2019-11-17T10:27:58Z</time>
      </trkpt>
      <trkpt lat="59.254997" lon="17.915331">
        <ele>61.9</ele>
        <time>2019-11-17T10:28:02Z</time>
      </trkpt>
      <trkpt lat="59.254989" lon="17.915397">
        <ele>62.1</ele>
        <time>2019-11-17T10:28:08Z</time>
      </trkpt>
      <trkpt lat="59.25498" lon="17.915471">
        <ele>62.4</ele>
        <time>2019-11-17T10:28:46Z</time>
      </trkpt>
      <trkpt lat="59.25499" lon="17.915523">
        <ele>62.5</ele>
        <time>2019-11-17T10:29:17Z</time>
      </trkpt>
      <trkpt lat="59.254994" lon="17.915597">
        <ele>62.8</ele>
        <time>2019-11-17T10:29:21Z</time>
      </trkpt>
      <trkpt lat="59.254991" lon="17.915671">
        <ele>63</ele>
        <time>2019-11-17T10:29:25Z</time>
      </trkpt>
      <trkpt lat="59.254979" lon="17.915722">
        <ele>63.2</ele>
        <time>2019-11-17T10:29:33Z</time>
      </trkpt>
      <trkpt lat="59.254971" lon="17.915789">
        <ele>63.5</ele>
        <time>2019-11-17T10:29:37Z</time>
      </trkpt>
      <trkpt lat="59.254971" lon="17.915853">
        <ele>63.7</ele>
        <time>2019-11-17T10:29:40Z</time>
      </trkpt>
      <trkpt lat="59.254979" lon="17.915916">
        <ele>63.9</ele>
        <time>2019-11-17T10:29:43Z</time>
      </trkpt>
      <trkpt lat="59.254971" lon="17.915975">
        <ele>64.1</ele>
        <time>2019-11-17T10:29:51Z</time>
      </trkpt>
      <trkpt lat="59.25496" lon="17.91603">
        <ele>64.2</ele>
        <time>2019-11-17T10:29:54Z</time>
      </trkpt>
      <trkpt lat="59.254939" lon="17.916092">
        <ele>64.3</ele>
        <time>2019-11-17T10:29:59Z</time>
      </trkpt>
      <trkpt lat="59.254912" lon="17.916128">
        <ele>64.4</ele>
        <time>2019-11-17T10:30:03Z</time>
      </trkpt>
      <trkpt lat="59.254878" lon="17.916157">
        <ele>64.4</ele>
        <time>2019-11-17T10:30:07Z</time>
      </trkpt>
      <trkpt lat="59.254856" lon="17.916205">
        <ele>64.3</ele>
        <time>2019-11-17T10:30:11Z</time>
      </trkpt>
      <trkpt lat="59.254852" lon="17.916261">
        <ele>64.3</ele>
        <time>2019-11-17T10:30:14Z</time>
      </trkpt>
      <trkpt lat="59.254878" lon="17.916301">
        <ele>64.2</ele>
        <time>2019-11-17T10:30:22Z</time>
      </trkpt>
      <trkpt lat="59.254896" lon="17.916341">
        <ele>64.2</ele>
        <time>2019-11-17T10:30:26Z</time>
      </trkpt>
      <trkpt lat="59.254921" lon="17.916401">
        <ele>64.2</ele>
        <time>2019-11-17T10:30:30Z</time>
      </trkpt>
      <trkpt lat="59.254933" lon="17.916452">
        <ele>64.1</ele>
        <time>2019-11-17T10:30:33Z</time>
      </trkpt>
      <trkpt lat="59.254948" lon="17.916502">
        <ele>64</ele>
        <time>2019-11-17T10:30:38Z</time>
      </trkpt>
      <trkpt lat="59.254945" lon="17.916597">
        <ele>63.9</ele>
        <time>2019-11-17T10:30:42Z</time>
      </trkpt>
      <trkpt lat="59.254948" lon="17.916669">
        <ele>63.8</ele>
        <time>2019-11-17T10:30:44Z</time>
      </trkpt>
      <trkpt lat="59.254948" lon="17.916732">
        <ele>63.8</ele>
        <time>2019-11-17T10:30:47Z</time>
      </trkpt>
      <trkpt lat="59.254943" lon="17.916787">
        <ele>63.8</ele>
        <time>2019-11-17T10:30:49Z</time>
      </trkpt>
      <trkpt lat="59.254934" lon="17.916857">
        <ele>63.8</ele>
        <time>2019-11-17T10:30:53Z</time>
      </trkpt>
      <trkpt lat="59.254926" lon="17.916928">
        <ele>63.9</ele>
        <time>2019-11-17T10:30:58Z</time>
      </trkpt>
      <trkpt lat="59.254919" lon="17.916981">
        <ele>63.9</ele>
        <time>2019-11-17T10:31:01Z</time>
      </trkpt>
      <trkpt lat="59.254916" lon="17.917052">
        <ele>64.2</ele>
        <time>2019-11-17T10:31:08Z</time>
      </trkpt>
      <trkpt lat="59.254907" lon="17.917108">
        <ele>64.2</ele>
        <time>2019-11-17T10:31:14Z</time>
      </trkpt>
      <trkpt lat="59.254888" lon="17.917156">
        <ele>64.2</ele>
        <time>2019-11-17T10:31:20Z</time>
      </trkpt>
      <trkpt lat="59.254866" lon="17.91719">
        <ele>64.2</ele>
        <time>2019-11-17T10:31:25Z</time>
      </trkpt>
      <trkpt lat="59.254879" lon="17.917238">
        <ele>64.4</ele>
        <time>2019-11-17T10:31:31Z</time>
      </trkpt>
      <trkpt lat="59.254891" lon="17.917285">
        <ele>64.9</ele>
        <time>2019-11-17T10:31:40Z</time>
      </trkpt>
      <trkpt lat="59.254912" lon="17.917329">
        <ele>65</ele>
        <time>2019-11-17T10:31:49Z</time>
      </trkpt>
      <trkpt lat="59.254917" lon="17.917387">
        <ele>65.3</ele>
        <time>2019-11-17T10:32:00Z</time>
      </trkpt>
      <trkpt lat="59.254931" lon="17.917457">
        <ele>65.7</ele>
        <time>2019-11-17T10:32:07Z</time>
      </trkpt>
      <trkpt lat="59.254945" lon="17.917541">
        <ele>66</ele>
        <time>2019-11-17T10:32:13Z</time>
      </trkpt>
      <trkpt lat="59.254962" lon="17.917597">
        <ele>66.5</ele>
        <time>2019-11-17T10:32:16Z</time>
      </trkpt>
      <trkpt lat="59.254973" lon="17.917649">
        <ele>66.7</ele>
        <time>2019-11-17T10:32:19Z</time>
      </trkpt>
      <trkpt lat="59.254988" lon="17.917706">
        <ele>67.1</ele>
        <time>2019-11-17T10:32:24Z</time>
      </trkpt>
      <trkpt lat="59.254999" lon="17.917761">
        <ele>67.5</ele>
        <time>2019-11-17T10:32:29Z</time>
      </trkpt>
      <trkpt lat="59.255011" lon="17.917809">
        <ele>67.8</ele>
        <time>2019-11-17T10:32:33Z</time>
      </trkpt>
      <trkpt lat="59.255031" lon="17.91786">
        <ele>68.2</ele>
        <time>2019-11-17T10:32:38Z</time>
      </trkpt>
      <trkpt lat="59.25504" lon="17.917922">
        <ele>68.4</ele>
        <time>2019-11-17T10:32:43Z</time>
      </trkpt>
      <trkpt lat="59.255048" lon="17.917979">
        <ele>69.1</ele>
        <time>2019-11-17T10:32:48Z</time>
      </trkpt>
      <trkpt lat="59.255049" lon="17.918045">
        <ele>69.3</ele>
        <time>2019-11-17T10:32:54Z</time>
      </trkpt>
      <trkpt lat="59.255041" lon="17.918111">
        <ele>69.5</ele>
        <time>2019-11-17T10:32:59Z</time>
      </trkpt>
      <trkpt lat="59.255021" lon="17.918148">
        <ele>69.5</ele>
        <time>2019-11-17T10:33:07Z</time>
      </trkpt>
      <trkpt lat="59.25499" lon="17.918164">
        <ele>69.1</ele>
        <time>2019-11-17T10:33:13Z</time>
      </trkpt>
      <trkpt lat="59.254962" lon="17.918146">
        <ele>68.8</ele>
        <time>2019-11-17T10:33:21Z</time>
      </trkpt>
      <trkpt lat="59.254932" lon="17.918161">
        <ele>68.2</ele>
        <time>2019-11-17T10:33:25Z</time>
      </trkpt>
      <trkpt lat="59.25491" lon="17.9182">
        <ele>68.1</ele>
        <time>2019-11-17T10:33:29Z</time>
      </trkpt>
      <trkpt lat="59.254877" lon="17.918207">
        <ele>67.7</ele>
        <time>2019-11-17T10:33:36Z</time>
      </trkpt>
      <trkpt lat="59.254848" lon="17.918209">
        <ele>67.4</ele>
        <time>2019-11-17T10:33:43Z</time>
      </trkpt>
      <trkpt lat="59.254811" lon="17.918224">
        <ele>66.7</ele>
        <time>2019-11-17T10:33:49Z</time>
      </trkpt>
      <trkpt lat="59.254781" lon="17.918236">
        <ele>66</ele>
        <time>2019-11-17T10:33:57Z</time>
      </trkpt>
      <trkpt lat="59.254755" lon="17.91826">
        <ele>65.5</ele>
        <time>2019-11-17T10:34:03Z</time>
      </trkpt>
      <trkpt lat="59.254734" lon="17.918305">
        <ele>65</ele>
        <time>2019-11-17T10:34:08Z</time>
      </trkpt>
      <trkpt lat="59.254714" lon="17.918342">
        <ele>64.3</ele>
        <time>2019-11-17T10:34:18Z</time>
      </trkpt>
      <trkpt lat="59.254687" lon="17.918368">
        <ele>63.6</ele>
        <time>2019-11-17T10:34:26Z</time>
      </trkpt>
      <trkpt lat="59.254658" lon="17.918391">
        <ele>63</ele>
        <time>2019-11-17T10:34:30Z</time>
      </trkpt>
      <trkpt lat="59.254636" lon="17.918422">
        <ele>62.1</ele>
        <time>2019-11-17T10:34:38Z</time>
      </trkpt>
      <trkpt lat="59.254605" lon="17.918433">
        <ele>61.1</ele>
        <time>2019-11-17T10:34:45Z</time>
      </trkpt>
      <trkpt lat="59.254573" lon="17.918437">
        <ele>60.6</ele>
        <time>2019-11-17T10:34:49Z</time>
      </trkpt>
      <trkpt lat="59.254543" lon="17.918431">
        <ele>60.2</ele>
        <time>2019-11-17T10:34:52Z</time>
      </trkpt>
      <trkpt lat="59.254516" lon="17.918439">
        <ele>59.4</ele>
        <time>2019-11-17T10:34:55Z</time>
      </trkpt>
      <trkpt lat="59.25448" lon="17.918458">
        <ele>59.1</ele>
        <time>2019-11-17T10:35:00Z</time>
      </trkpt>
      <trkpt lat="59.254454" lon="17.918479">
        <ele>58.7</ele>
        <time>2019-11-17T10:35:05Z</time>
      </trkpt>
      <trkpt lat="59.254496" lon="17.918495">
        <ele>59.4</ele>
        <time>2019-11-17T10:35:25Z</time>
      </trkpt>
      <trkpt lat="59.254533" lon="17.918554">
        <ele>60</ele>
        <time>2019-11-17T10:35:28Z</time>
      </trkpt>
      <trkpt lat="59.254561" lon="17.918593">
        <ele>60.9</ele>
        <time>2019-11-17T10:35:31Z</time>
      </trkpt>
      <trkpt lat="59.254589" lon="17.918602">
        <ele>61.7</ele>
        <time>2019-11-17T10:35:34Z</time>
      </trkpt>
      <trkpt lat="59.254626" lon="17.9186">
        <ele>62.1</ele>
        <time>2019-11-17T10:35:38Z</time>
      </trkpt>
      <trkpt lat="59.254659" lon="17.918592">
        <ele>63.3</ele>
        <time>2019-11-17T10:35:43Z</time>
      </trkpt>
      <trkpt lat="59.254672" lon="17.918545">
        <ele>63.2</ele>
        <time>2019-11-17T10:35:49Z</time>
      </trkpt>
      <trkpt lat="59.254689" lon="17.918477">
        <ele>62.4</ele>
        <time>2019-11-17T10:35:56Z</time>
      </trkpt>
      <trkpt lat="59.254719" lon="17.918446">
        <ele>63.5</ele>
        <time>2019-11-17T10:36:05Z</time>
      </trkpt>
      <trkpt lat="59.254748" lon="17.91842">
        <ele>63.8</ele>
        <time>2019-11-17T10:36:09Z</time>
      </trkpt>
      <trkpt lat="59.254779" lon="17.918402">
        <ele>64.3</ele>
        <time>2019-11-17T10:36:13Z</time>
      </trkpt>
      <trkpt lat="59.254807" lon="17.918401">
        <ele>65.2</ele>
        <time>2019-11-17T10:36:16Z</time>
      </trkpt>
      <trkpt lat="59.254851" lon="17.918385">
        <ele>65.9</ele>
        <time>2019-11-17T10:36:20Z</time>
      </trkpt>
      <trkpt lat="59.254883" lon="17.918351">
        <ele>66.1</ele>
        <time>2019-11-17T10:36:24Z</time>
      </trkpt>
      <trkpt lat="59.254901" lon="17.91831">
        <ele>66.2</ele>
        <time>2019-11-17T10:36:30Z</time>
      </trkpt>
      <trkpt lat="59.254928" lon="17.918273">
        <ele>66.4</ele>
        <time>2019-11-17T10:36:33Z</time>
      </trkpt>
      <trkpt lat="59.254959" lon="17.918239">
        <ele>66.7</ele>
        <time>2019-11-17T10:36:37Z</time>
      </trkpt>
      <trkpt lat="59.25499" lon="17.918226">
        <ele>66.7</ele>
        <time>2019-11-17T10:36:44Z</time>
      </trkpt>
      <trkpt lat="59.255018" lon="17.918223">
        <ele>66.9</ele>
        <time>2019-11-17T10:36:54Z</time>
      </trkpt>
      <trkpt lat="59.25503" lon="17.918174">
        <ele>66.8</ele>
        <time>2019-11-17T10:37:08Z</time>
      </trkpt>
      <trkpt lat="59.255039" lon="17.918121">
        <ele>66.5</ele>
        <time>2019-11-17T10:37:14Z</time>
      </trkpt>
      <trkpt lat="59.255064" lon="17.91815">
        <ele>66.9</ele>
        <time>2019-11-17T10:37:48Z</time>
      </trkpt>
      <trkpt lat="59.255088" lon="17.918182">
        <ele>67.1</ele>
        <time>2019-11-17T10:37:58Z</time>
      </trkpt>
      <trkpt lat="59.255085" lon="17.918243">
        <ele>67.5</ele>
        <time>2019-11-17T10:38:09Z</time>
      </trkpt>
      <trkpt lat="59.25508" lon="17.918295">
        <ele>67.8</ele>
        <time>2019-11-17T10:38:16Z</time>
      </trkpt>
      <trkpt lat="59.25508" lon="17.91835">
        <ele>68</ele>
        <time>2019-11-17T10:38:37Z</time>
      </trkpt>
      <trkpt lat="59.255105" lon="17.91838">
        <ele>68.4</ele>
        <time>2019-11-17T10:38:48Z</time>
      </trkpt>
      <trkpt lat="59.255103" lon="17.91844">
        <ele>68.7</ele>
        <time>2019-11-17T10:39:03Z</time>
      </trkpt>
      <trkpt lat="59.25509" lon="17.918489">
        <ele>69.2</ele>
        <time>2019-11-17T10:39:10Z</time>
      </trkpt>
      <trkpt lat="59.255084" lon="17.918541">
        <ele>69.1</ele>
        <time>2019-11-17T10:39:17Z</time>
      </trkpt>
      <trkpt lat="59.255096" lon="17.918593">
        <ele>69.6</ele>
        <time>2019-11-17T10:39:42Z</time>
      </trkpt>
      <trkpt lat="59.255099" lon="17.91866">
        <ele>70.2</ele>
        <time>2019-11-17T10:39:49Z</time>
      </trkpt>
      <trkpt lat="59.255101" lon="17.918713">
        <ele>70.6</ele>
        <time>2019-11-17T10:39:54Z</time>
      </trkpt>
      <trkpt lat="59.25508" lon="17.918757">
        <ele>70.6</ele>
        <time>2019-11-17T10:40:00Z</time>
      </trkpt>
      <trkpt lat="59.255068" lon="17.91881">
        <ele>70.8</ele>
        <time>2019-11-17T10:40:08Z</time>
      </trkpt>
      <trkpt lat="59.255046" lon="17.918844">
        <ele>70.8</ele>
        <time>2019-11-17T10:40:14Z</time>
      </trkpt>
      <trkpt lat="59.255023" lon="17.918888">
        <ele>70.7</ele>
        <time>2019-11-17T10:40:19Z</time>
      </trkpt>
      <trkpt lat="59.255004" lon="17.918932">
        <ele>70.7</ele>
        <time>2019-11-17T10:40:23Z</time>
      </trkpt>
      <trkpt lat="59.254985" lon="17.919009">
        <ele>71</ele>
        <time>2019-11-17T10:40:27Z</time>
      </trkpt>
      <trkpt lat="59.254966" lon="17.919069">
        <ele>71</ele>
        <time>2019-11-17T10:40:32Z</time>
      </trkpt>
      <trkpt lat="59.254953" lon="17.919119">
        <ele>71</ele>
        <time>2019-11-17T10:40:35Z</time>
      </trkpt>
      <trkpt lat="59.254954" lon="17.919184">
        <ele>71.6</ele>
        <time>2019-11-17T10:40:40Z</time>
      </trkpt>
      <trkpt lat="59.25496" lon="17.919236">
        <ele>72.1</ele>
        <time>2019-11-17T10:40:44Z</time>
      </trkpt>
      <trkpt lat="59.25498" lon="17.919287">
        <ele>72.6</ele>
        <time>2019-11-17T10:40:51Z</time>
      </trkpt>
      <trkpt lat="59.254991" lon="17.919338">
        <ele>72.9</ele>
        <time>2019-11-17T10:40:55Z</time>
      </trkpt>
      <trkpt lat="59.255018" lon="17.919342">
        <ele>73.1</ele>
        <time>2019-11-17T10:41:31Z</time>
      </trkpt>
      <trkpt lat="59.255033" lon="17.919387">
        <ele>73.6</ele>
        <time>2019-11-17T10:41:41Z</time>
      </trkpt>
      <trkpt lat="59.255057" lon="17.919422">
        <ele>74.1</ele>
        <time>2019-11-17T10:41:47Z</time>
      </trkpt>
      <trkpt lat="59.255083" lon="17.919437">
        <ele>74.5</ele>
        <time>2019-11-17T10:41:54Z</time>
      </trkpt>
      <trkpt lat="59.255111" lon="17.919416">
        <ele>74.6</ele>
        <time>2019-11-17T10:42:03Z</time>
      </trkpt>
      <trkpt lat="59.255141" lon="17.919406">
        <ele>74.8</ele>
        <time>2019-11-17T10:42:10Z</time>
      </trkpt>
      <trkpt lat="59.255169" lon="17.919406">
        <ele>74.9</ele>
        <time>2019-11-17T10:42:18Z</time>
      </trkpt>
      <trkpt lat="59.255193" lon="17.919373">
        <ele>74.7</ele>
        <time>2019-11-17T10:42:36Z</time>
      </trkpt>
      <trkpt lat="59.255222" lon="17.919377">
        <ele>75.1</ele>
        <time>2019-11-17T10:42:57Z</time>
      </trkpt>
      <trkpt lat="59.25524" lon="17.919337">
        <ele>74.7</ele>
        <time>2019-11-17T10:43:07Z</time>
      </trkpt>
      <trkpt lat="59.255272" lon="17.919331">
        <ele>75.1</ele>
        <time>2019-11-17T10:43:29Z</time>
      </trkpt>
      <trkpt lat="59.255301" lon="17.919374">
        <ele>75.5</ele>
        <time>2019-11-17T10:43:44Z</time>
      </trkpt>
      <trkpt lat="59.255312" lon="17.919438">
        <ele>76.2</ele>
        <time>2019-11-17T10:43:54Z</time>
      </trkpt>
      <trkpt lat="59.255316" lon="17.91952">
        <ele>76.7</ele>
        <time>2019-11-17T10:44:00Z</time>
      </trkpt>
      <trkpt lat="59.255318" lon="17.919573">
        <ele>77</ele>
        <time>2019-11-17T10:44:20Z</time>
      </trkpt>
      <trkpt lat="59.255316" lon="17.919632">
        <ele>77.2</ele>
        <time>2019-11-17T10:44:34Z</time>
      </trkpt>
      <trkpt lat="59.255299" lon="17.919683">
        <ele>77.2</ele>
        <time>2019-11-17T10:44:39Z</time>
      </trkpt>
      <trkpt lat="59.255269" lon="17.919708">
        <ele>77.3</ele>
        <time>2019-11-17T10:44:46Z</time>
      </trkpt>
      <trkpt lat="59.255246" lon="17.919741">
        <ele>77.3</ele>
        <time>2019-11-17T10:44:51Z</time>
      </trkpt>
      <trkpt lat="59.255239" lon="17.919798">
        <ele>77.4</ele>
        <time>2019-11-17T10:44:59Z</time>
      </trkpt>
      <trkpt lat="59.255247" lon="17.919849">
        <ele>77.8</ele>
        <time>2019-11-17T10:45:07Z</time>
      </trkpt>
      <trkpt lat="59.255262" lon="17.919902">
        <ele>78</ele>
        <time>2019-11-17T10:45:11Z</time>
      </trkpt>
      <trkpt lat="59.255279" lon="17.919948">
        <ele>78.2</ele>
        <time>2019-11-17T10:45:17Z</time>
      </trkpt>
      <trkpt lat="59.255312" lon="17.919931">
        <ele>78.4</ele>
        <time>2019-11-17T10:45:23Z</time>
      </trkpt>
      <trkpt lat="59.255334" lon="17.919895">
        <ele>78.6</ele>
        <time>2019-11-17T10:45:29Z</time>
      </trkpt>
      <trkpt lat="59.25536" lon="17.919863">
        <ele>78.7</ele>
        <time>2019-11-17T10:45:33Z</time>
      </trkpt>
      <trkpt lat="59.255394" lon="17.91985">
        <ele>78.8</ele>
        <time>2019-11-17T10:45:43Z</time>
      </trkpt>
      <trkpt lat="59.255424" lon="17.919838">
        <ele>78.9</ele>
        <time>2019-11-17T10:45:48Z</time>
      </trkpt>
      <trkpt lat="59.25545" lon="17.91982">
        <ele>79</ele>
        <time>2019-11-17T10:45:53Z</time>
      </trkpt>
      <trkpt lat="59.255484" lon="17.919813">
        <ele>79.1</ele>
        <time>2019-11-17T10:45:58Z</time>
      </trkpt>
      <trkpt lat="59.255514" lon="17.919788">
        <ele>79.1</ele>
        <time>2019-11-17T10:46:05Z</time>
      </trkpt>
      <trkpt lat="59.255535" lon="17.919747">
        <ele>79.2</ele>
        <time>2019-11-17T10:46:11Z</time>
      </trkpt>
      <trkpt lat="59.255564" lon="17.91972">
        <ele>79.2</ele>
        <time>2019-11-17T10:46:17Z</time>
      </trkpt>
      <trkpt lat="59.255595" lon="17.91972">
        <ele>79.2</ele>
        <time>2019-11-17T10:46:22Z</time>
      </trkpt>
      <trkpt lat="59.255624" lon="17.919743">
        <ele>79.5</ele>
        <time>2019-11-17T10:46:29Z</time>
      </trkpt>
      <trkpt lat="59.255646" lon="17.919781">
        <ele>79.6</ele>
        <time>2019-11-17T10:46:40Z</time>
      </trkpt>
      <trkpt lat="59.255673" lon="17.919783">
        <ele>79.7</ele>
        <time>2019-11-17T10:46:46Z</time>
      </trkpt>
      <trkpt lat="59.255693" lon="17.919826">
        <ele>79.9</ele>
        <time>2019-11-17T10:46:52Z</time>
      </trkpt>
      <trkpt lat="59.25572" lon="17.919839">
        <ele>80</ele>
        <time>2019-11-17T10:47:13Z</time>
      </trkpt>
      <trkpt lat="59.255751" lon="17.91986">
        <ele>80.2</ele>
        <time>2019-11-17T10:47:18Z</time>
      </trkpt>
      <trkpt lat="59.255783" lon="17.919873">
        <ele>80.4</ele>
        <time>2019-11-17T10:47:23Z</time>
      </trkpt>
      <trkpt lat="59.255809" lon="17.919897">
        <ele>80.5</ele>
        <time>2019-11-17T10:47:28Z</time>
      </trkpt>
      <trkpt lat="59.255841" lon="17.919906">
        <ele>80.7</ele>
        <time>2019-11-17T10:47:32Z</time>
      </trkpt>
      <trkpt lat="59.255872" lon="17.919921">
        <ele>80.9</ele>
        <time>2019-11-17T10:47:39Z</time>
      </trkpt>
      <trkpt lat="59.255896" lon="17.919945">
        <ele>81</ele>
        <time>2019-11-17T10:47:47Z</time>
      </trkpt>
      <trkpt lat="59.255918" lon="17.919989">
        <ele>81.2</ele>
        <time>2019-11-17T10:47:54Z</time>
      </trkpt>
      <trkpt lat="59.255952" lon="17.920008">
        <ele>81.4</ele>
        <time>2019-11-17T10:47:59Z</time>
      </trkpt>
      <trkpt lat="59.255979" lon="17.920013">
        <ele>81.5</ele>
        <time>2019-11-17T10:48:03Z</time>
      </trkpt>
      <trkpt lat="59.256003" lon="17.920043">
        <ele>81.7</ele>
        <time>2019-11-17T10:48:08Z</time>
      </trkpt>
      <trkpt lat="59.256032" lon="17.920031">
        <ele>81.8</ele>
        <time>2019-11-17T10:48:22Z</time>
      </trkpt>
      <trkpt lat="59.256035" lon="17.920084">
        <ele>82</ele>
        <time>2019-11-17T10:50:03Z</time>
      </trkpt>
      <trkpt lat="59.256008" lon="17.920065">
        <ele>82.1</ele>
        <time>2019-11-17T10:50:26Z</time>
      </trkpt>
      <trkpt lat="59.255984" lon="17.92002">
        <ele>82.3</ele>
        <time>2019-11-17T10:50:32Z</time>
      </trkpt>
      <trkpt lat="59.255951" lon="17.919977">
        <ele>82.1</ele>
        <time>2019-11-17T10:50:38Z</time>
      </trkpt>
      <trkpt lat="59.255926" lon="17.919942">
        <ele>81.9</ele>
        <time>2019-11-17T10:50:45Z</time>
      </trkpt>
      <trkpt lat="59.255901" lon="17.919902">
        <ele>81.7</ele>
        <time>2019-11-17T10:50:51Z</time>
      </trkpt>
      <trkpt lat="59.255865" lon="17.919862">
        <ele>81.4</ele>
        <time>2019-11-17T10:50:55Z</time>
      </trkpt>
      <trkpt lat="59.255825" lon="17.919842">
        <ele>81.1</ele>
        <time>2019-11-17T10:50:59Z</time>
      </trkpt>
      <trkpt lat="59.255795" lon="17.919831">
        <ele>80.9</ele>
        <time>2019-11-17T10:51:02Z</time>
      </trkpt>
      <trkpt lat="59.255767" lon="17.919814">
        <ele>80.7</ele>
        <time>2019-11-17T10:51:07Z</time>
      </trkpt>
      <trkpt lat="59.255737" lon="17.919778">
        <ele>80.5</ele>
        <time>2019-11-17T10:51:12Z</time>
      </trkpt>
      <trkpt lat="59.255718" lon="17.919728">
        <ele>80.3</ele>
        <time>2019-11-17T10:51:15Z</time>
      </trkpt>
      <trkpt lat="59.255696" lon="17.919681">
        <ele>80.1</ele>
        <time>2019-11-17T10:51:20Z</time>
      </trkpt>
      <trkpt lat="59.255668" lon="17.919655">
        <ele>79.9</ele>
        <time>2019-11-17T10:51:25Z</time>
      </trkpt>
      <trkpt lat="59.255636" lon="17.91964">
        <ele>79.7</ele>
        <time>2019-11-17T10:51:32Z</time>
      </trkpt>
      <trkpt lat="59.255611" lon="17.9196">
        <ele>79.5</ele>
        <time>2019-11-17T10:51:36Z</time>
      </trkpt>
      <trkpt lat="59.25558" lon="17.919599">
        <ele>79.3</ele>
        <time>2019-11-17T10:51:39Z</time>
      </trkpt>
      <trkpt lat="59.255556" lon="17.919622">
        <ele>79.2</ele>
        <time>2019-11-17T10:51:42Z</time>
      </trkpt>
      <trkpt lat="59.255521" lon="17.919652">
        <ele>79.2</ele>
        <time>2019-11-17T10:51:46Z</time>
      </trkpt>
      <trkpt lat="59.255487" lon="17.919663">
        <ele>79.1</ele>
        <time>2019-11-17T10:51:52Z</time>
      </trkpt>
      <trkpt lat="59.255454" lon="17.919698">
        <ele>79.1</ele>
        <time>2019-11-17T10:51:57Z</time>
      </trkpt>
      <trkpt lat="59.255422" lon="17.919718">
        <ele>79</ele>
        <time>2019-11-17T10:52:00Z</time>
      </trkpt>
      <trkpt lat="59.255386" lon="17.919719">
        <ele>78.9</ele>
        <time>2019-11-17T10:52:04Z</time>
      </trkpt>
      <trkpt lat="59.25536" lon="17.919744">
        <ele>78.7</ele>
        <time>2019-11-17T10:52:07Z</time>
      </trkpt>
      <trkpt lat="59.255335" lon="17.919788">
        <ele>78.6</ele>
        <time>2019-11-17T10:52:10Z</time>
      </trkpt>
      <trkpt lat="59.255306" lon="17.919814">
        <ele>78.4</ele>
        <time>2019-11-17T10:52:16Z</time>
      </trkpt>
      <trkpt lat="59.25527" lon="17.919837">
        <ele>78.1</ele>
        <time>2019-11-17T10:52:20Z</time>
      </trkpt>
      <trkpt lat="59.25524" lon="17.919869">
        <ele>77.8</ele>
        <time>2019-11-17T10:52:23Z</time>
      </trkpt>
      <trkpt lat="59.255217" lon="17.919901">
        <ele>77.6</ele>
        <time>2019-11-17T10:52:25Z</time>
      </trkpt>
      <trkpt lat="59.255191" lon="17.919925">
        <ele>77.2</ele>
        <time>2019-11-17T10:52:28Z</time>
      </trkpt>
      <trkpt lat="59.255162" lon="17.919928">
        <ele>76.9</ele>
        <time>2019-11-17T10:52:30Z</time>
      </trkpt>
      <trkpt lat="59.255122" lon="17.919924">
        <ele>76.5</ele>
        <time>2019-11-17T10:52:33Z</time>
      </trkpt>
      <trkpt lat="59.255093" lon="17.919922">
        <ele>76.2</ele>
        <time>2019-11-17T10:52:35Z</time>
      </trkpt>
      <trkpt lat="59.255066" lon="17.919917">
        <ele>76</ele>
        <time>2019-11-17T10:52:37Z</time>
      </trkpt>
      <trkpt lat="59.255028" lon="17.919907">
        <ele>75.5</ele>
        <time>2019-11-17T10:52:40Z</time>
      </trkpt>
      <trkpt lat="59.254993" lon="17.919884">
        <ele>75.1</ele>
        <time>2019-11-17T10:52:44Z</time>
      </trkpt>
      <trkpt lat="59.254964" lon="17.91987">
        <ele>74.8</ele>
        <time>2019-11-17T10:52:48Z</time>
      </trkpt>
      <trkpt lat="59.254934" lon="17.919832">
        <ele>74.4</ele>
        <time>2019-11-17T10:52:54Z</time>
      </trkpt>
      <trkpt lat="59.254906" lon="17.919793">
        <ele>74</ele>
        <time>2019-11-17T10:52:57Z</time>
      </trkpt>
      <trkpt lat="59.254874" lon="17.919807">
        <ele>73.7</ele>
        <time>2019-11-17T10:53:07Z</time>
      </trkpt>
      <trkpt lat="59.254839" lon="17.919805">
        <ele>73.3</ele>
        <time>2019-11-17T10:53:13Z</time>
      </trkpt>
      <trkpt lat="59.254811" lon="17.919779">
        <ele>72.9</ele>
        <time>2019-11-17T10:53:20Z</time>
      </trkpt>
      <trkpt lat="59.254781" lon="17.919767">
        <ele>72.8</ele>
        <time>2019-11-17T10:53:31Z</time>
      </trkpt>
      <trkpt lat="59.254755" lon="17.919737">
        <ele>72.6</ele>
        <time>2019-11-17T10:53:38Z</time>
      </trkpt>
      <trkpt lat="59.254738" lon="17.91968">
        <ele>72.3</ele>
        <time>2019-11-17T10:53:42Z</time>
      </trkpt>
      <trkpt lat="59.254715" lon="17.919649">
        <ele>72.1</ele>
        <time>2019-11-17T10:53:45Z</time>
      </trkpt>
      <trkpt lat="59.254688" lon="17.919621">
        <ele>71.8</ele>
        <time>2019-11-17T10:53:48Z</time>
      </trkpt>
      <trkpt lat="59.254661" lon="17.919599">
        <ele>71.6</ele>
        <time>2019-11-17T10:53:50Z</time>
      </trkpt>
      <trkpt lat="59.254633" lon="17.919603">
        <ele>71.4</ele>
        <time>2019-11-17T10:53:54Z</time>
      </trkpt>
      <trkpt lat="59.254607" lon="17.919624">
        <ele>71.1</ele>
        <time>2019-11-17T10:53:57Z</time>
      </trkpt>
      <trkpt lat="59.254599" lon="17.919681">
        <ele>70.9</ele>
        <time>2019-11-17T10:54:01Z</time>
      </trkpt>
      <trkpt lat="59.254588" lon="17.919746">
        <ele>70.7</ele>
        <time>2019-11-17T10:54:07Z</time>
      </trkpt>
      <trkpt lat="59.254573" lon="17.919801">
        <ele>70.4</ele>
        <time>2019-11-17T10:54:12Z</time>
      </trkpt>
      <trkpt lat="59.254547" lon="17.919841">
        <ele>70.2</ele>
        <time>2019-11-17T10:54:15Z</time>
      </trkpt>
      <trkpt lat="59.25452" lon="17.919879">
        <ele>70</ele>
        <time>2019-11-17T10:54:19Z</time>
      </trkpt>
      <trkpt lat="59.254508" lon="17.919926">
        <ele>69.9</ele>
        <time>2019-11-17T10:54:27Z</time>
      </trkpt>
      <trkpt lat="59.254512" lon="17.919981">
        <ele>69.7</ele>
        <time>2019-11-17T10:54:32Z</time>
      </trkpt>
      <trkpt lat="59.2545" lon="17.920031">
        <ele>69.6</ele>
        <time>2019-11-17T10:54:36Z</time>
      </trkpt>
      <trkpt lat="59.254479" lon="17.920093">
        <ele>69.4</ele>
        <time>2019-11-17T10:54:40Z</time>
      </trkpt>
      <trkpt lat="59.25445" lon="17.920161">
        <ele>69.2</ele>
        <time>2019-11-17T10:54:44Z</time>
      </trkpt>
      <trkpt lat="59.254425" lon="17.920202">
        <ele>69.1</ele>
        <time>2019-11-17T10:54:48Z</time>
      </trkpt>
      <trkpt lat="59.254413" lon="17.920253">
        <ele>69</ele>
        <time>2019-11-17T10:54:53Z</time>
      </trkpt>
      <trkpt lat="59.2544" lon="17.920307">
        <ele>68.9</ele>
        <time>2019-11-17T10:54:58Z</time>
      </trkpt>
      <trkpt lat="59.254373" lon="17.92033">
        <ele>68.8</ele>
        <time>2019-11-17T10:55:04Z</time>
      </trkpt>
      <trkpt lat="59.254353" lon="17.920378">
        <ele>68.6</ele>
        <time>2019-11-17T10:55:16Z</time>
      </trkpt>
      <trkpt lat="59.254333" lon="17.920417">
        <ele>68.5</ele>
        <time>2019-11-17T10:55:20Z</time>
      </trkpt>
      <trkpt lat="59.254314" lon="17.920475">
        <ele>68.3</ele>
        <time>2019-11-17T10:55:27Z</time>
      </trkpt>
      <trkpt lat="59.254293" lon="17.920518">
        <ele>68</ele>
        <time>2019-11-17T10:55:32Z</time>
      </trkpt>
      <trkpt lat="59.25427" lon="17.920562">
        <ele>67.8</ele>
        <time>2019-11-17T10:55:36Z</time>
      </trkpt>
      <trkpt lat="59.254239" lon="17.920545">
        <ele>67.5</ele>
        <time>2019-11-17T10:55:44Z</time>
      </trkpt>
      <trkpt lat="59.254203" lon="17.920554">
        <ele>67.2</ele>
        <time>2019-11-17T10:55:49Z</time>
      </trkpt>
      <trkpt lat="59.25417" lon="17.920562">
        <ele>66.9</ele>
        <time>2019-11-17T10:55:54Z</time>
      </trkpt>
      <trkpt lat="59.254143" lon="17.920577">
        <ele>66.6</ele>
        <time>2019-11-17T10:56:02Z</time>
      </trkpt>
      <trkpt lat="59.25411" lon="17.920598">
        <ele>66.2</ele>
        <time>2019-11-17T10:56:05Z</time>
      </trkpt>
      <trkpt lat="59.254087" lon="17.920639">
        <ele>66.5</ele>
        <time>2019-11-17T10:56:09Z</time>
      </trkpt>
      <trkpt lat="59.254066" lon="17.920695">
        <ele>66.9</ele>
        <time>2019-11-17T10:56:13Z</time>
      </trkpt>
      <trkpt lat="59.254045" lon="17.920742">
        <ele>67.3</ele>
        <time>2019-11-17T10:56:18Z</time>
      </trkpt>
      <trkpt lat="59.254019" lon="17.920773">
        <ele>67.6</ele>
        <time>2019-11-17T10:56:24Z</time>
      </trkpt>
      <trkpt lat="59.253989" lon="17.920772">
        <ele>67.9</ele>
        <time>2019-11-17T10:56:30Z</time>
      </trkpt>
      <trkpt lat="59.253957" lon="17.920763">
        <ele>68.1</ele>
        <time>2019-11-17T10:56:37Z</time>
      </trkpt>
      <trkpt lat="59.253933" lon="17.920738">
        <ele>68.3</ele>
        <time>2019-11-17T10:56:43Z</time>
      </trkpt>
      <trkpt lat="59.253899" lon="17.920726">
        <ele>68.5</ele>
        <time>2019-11-17T10:56:53Z</time>
      </trkpt>
      <trkpt lat="59.25387" lon="17.920704">
        <ele>68.6</ele>
        <time>2019-11-17T10:57:06Z</time>
      </trkpt>
      <trkpt lat="59.253896" lon="17.920729">
        <ele>68.8</ele>
        <time>2019-11-17T10:57:32Z</time>
      </trkpt>
      <trkpt lat="59.253918" lon="17.920778">
        <ele>69</ele>
        <time>2019-11-17T10:57:37Z</time>
      </trkpt>
      <trkpt lat="59.253937" lon="17.92083">
        <ele>69.1</ele>
        <time>2019-11-17T10:57:41Z</time>
      </trkpt>
      <trkpt lat="59.253961" lon="17.920878">
        <ele>69.2</ele>
        <time>2019-11-17T10:57:46Z</time>
      </trkpt>
      <trkpt lat="59.253991" lon="17.920904">
        <ele>69.2</ele>
        <time>2019-11-17T10:57:52Z</time>
      </trkpt>
      <trkpt lat="59.254022" lon="17.920917">
        <ele>69.2</ele>
        <time>2019-11-17T10:57:56Z</time>
      </trkpt>
      <trkpt lat="59.254056" lon="17.920945">
        <ele>69.3</ele>
        <time>2019-11-17T10:58:02Z</time>
      </trkpt>
      <trkpt lat="59.254082" lon="17.920979">
        <ele>69.2</ele>
        <time>2019-11-17T10:58:08Z</time>
      </trkpt>
      <trkpt lat="59.254077" lon="17.921041">
        <ele>69.1</ele>
        <time>2019-11-17T10:58:14Z</time>
      </trkpt>
      <trkpt lat="59.254066" lon="17.921109">
        <ele>69</ele>
        <time>2019-11-17T10:58:18Z</time>
      </trkpt>
      <trkpt lat="59.254066" lon="17.921172">
        <ele>69</ele>
        <time>2019-11-17T10:58:25Z</time>
      </trkpt>
      <trkpt lat="59.254052" lon="17.921236">
        <ele>68.8</ele>
        <time>2019-11-17T10:58:29Z</time>
      </trkpt>
      <trkpt lat="59.254024" lon="17.921269">
        <ele>68.7</ele>
        <time>2019-11-17T10:58:34Z</time>
      </trkpt>
      <trkpt lat="59.254" lon="17.921293">
        <ele>68.6</ele>
        <time>2019-11-17T10:58:38Z</time>
      </trkpt>
      <trkpt lat="59.253968" lon="17.921312">
        <ele>68.4</ele>
        <time>2019-11-17T10:58:41Z</time>
      </trkpt>
      <trkpt lat="59.253941" lon="17.921323">
        <ele>68.3</ele>
        <time>2019-11-17T10:58:45Z</time>
      </trkpt>
      <trkpt lat="59.253915" lon="17.921358">
        <ele>68.1</ele>
        <time>2019-11-17T10:58:49Z</time>
      </trkpt>
      <trkpt lat="59.253885" lon="17.921405">
        <ele>67.9</ele>
        <time>2019-11-17T10:58:53Z</time>
      </trkpt>
      <trkpt lat="59.253856" lon="17.921427">
        <ele>67.8</ele>
        <time>2019-11-17T10:58:57Z</time>
      </trkpt>
      <trkpt lat="59.253831" lon="17.921478">
        <ele>67.6</ele>
        <time>2019-11-17T10:59:02Z</time>
      </trkpt>
      <trkpt lat="59.253809" lon="17.92151">
        <ele>67.5</ele>
        <time>2019-11-17T10:59:06Z</time>
      </trkpt>
      <trkpt lat="59.253784" lon="17.921559">
        <ele>67.4</ele>
        <time>2019-11-17T10:59:11Z</time>
      </trkpt>
      <trkpt lat="59.253774" lon="17.921611">
        <ele>67.3</ele>
        <time>2019-11-17T10:59:16Z</time>
      </trkpt>
      <trkpt lat="59.253791" lon="17.921668">
        <ele>67.2</ele>
        <time>2019-11-17T10:59:24Z</time>
      </trkpt>
      <trkpt lat="59.253785" lon="17.921725">
        <ele>67.1</ele>
        <time>2019-11-17T10:59:29Z</time>
      </trkpt>
      <trkpt lat="59.253774" lon="17.921793">
        <ele>66.9</ele>
        <time>2019-11-17T10:59:33Z</time>
      </trkpt>
      <trkpt lat="59.253767" lon="17.921853">
        <ele>66.7</ele>
        <time>2019-11-17T10:59:36Z</time>
      </trkpt>
      <trkpt lat="59.25375" lon="17.921934">
        <ele>66.6</ele>
        <time>2019-11-17T10:59:39Z</time>
      </trkpt>
      <trkpt lat="59.253736" lon="17.921981">
        <ele>66.5</ele>
        <time>2019-11-17T10:59:42Z</time>
      </trkpt>
      <trkpt lat="59.253727" lon="17.922055">
        <ele>66.3</ele>
        <time>2019-11-17T10:59:45Z</time>
      </trkpt>
      <trkpt lat="59.253706" lon="17.922133">
        <ele>66.1</ele>
        <time>2019-11-17T10:59:47Z</time>
      </trkpt>
      <trkpt lat="59.253699" lon="17.922187">
        <ele>66</ele>
        <time>2019-11-17T11:00:02Z</time>
      </trkpt>
      <trkpt lat="59.253685" lon="17.922233">
        <ele>65.9</ele>
        <time>2019-11-17T11:00:13Z</time>
      </trkpt>
      <trkpt lat="59.253664" lon="17.92227">
        <ele>65.8</ele>
        <time>2019-11-17T11:00:17Z</time>
      </trkpt>
      <trkpt lat="59.253642" lon="17.922313">
        <ele>65.6</ele>
        <time>2019-11-17T11:00:20Z</time>
      </trkpt>
      <trkpt lat="59.253615" lon="17.922382">
        <ele>66.1</ele>
        <time>2019-11-17T11:00:24Z</time>
      </trkpt>
      <trkpt lat="59.253601" lon="17.922441">
        <ele>66.5</ele>
        <time>2019-11-17T11:00:27Z</time>
      </trkpt>
      <trkpt lat="59.253588" lon="17.92249">
        <ele>66.8</ele>
        <time>2019-11-17T11:00:30Z</time>
      </trkpt>
      <trkpt lat="59.253582" lon="17.922555">
        <ele>67.1</ele>
        <time>2019-11-17T11:00:33Z</time>
      </trkpt>
      <trkpt lat="59.253585" lon="17.922621">
        <ele>67.5</ele>
        <time>2019-11-17T11:00:37Z</time>
      </trkpt>
      <trkpt lat="59.253593" lon="17.922684">
        <ele>67.8</ele>
        <time>2019-11-17T11:00:40Z</time>
      </trkpt>
      <trkpt lat="59.253584" lon="17.922745">
        <ele>68</ele>
        <time>2019-11-17T11:00:46Z</time>
      </trkpt>
      <trkpt lat="59.253578" lon="17.922817">
        <ele>68.2</ele>
        <time>2019-11-17T11:00:53Z</time>
      </trkpt>
      <trkpt lat="59.253578" lon="17.922872">
        <ele>68.4</ele>
        <time>2019-11-17T11:00:56Z</time>
      </trkpt>
      <trkpt lat="59.253558" lon="17.922919">
        <ele>68.6</ele>
        <time>2019-11-17T11:01:03Z</time>
      </trkpt>
      <trkpt lat="59.253565" lon="17.922985">
        <ele>68.7</ele>
        <time>2019-11-17T11:01:10Z</time>
      </trkpt>
      <trkpt lat="59.253584" lon="17.923055">
        <ele>68.9</ele>
        <time>2019-11-17T11:01:14Z</time>
      </trkpt>
      <trkpt lat="59.253607" lon="17.923114">
        <ele>69</ele>
        <time>2019-11-17T11:01:17Z</time>
      </trkpt>
      <trkpt lat="59.253621" lon="17.923181">
        <ele>69.1</ele>
        <time>2019-11-17T11:01:20Z</time>
      </trkpt>
      <trkpt lat="59.253627" lon="17.923238">
        <ele>69.1</ele>
        <time>2019-11-17T11:01:23Z</time>
      </trkpt>
      <trkpt lat="59.253638" lon="17.923307">
        <ele>69.2</ele>
        <time>2019-11-17T11:01:27Z</time>
      </trkpt>
      <trkpt lat="59.253644" lon="17.923378">
        <ele>69.2</ele>
        <time>2019-11-17T11:01:32Z</time>
      </trkpt>
      <trkpt lat="59.253654" lon="17.923443">
        <ele>69.2</ele>
        <time>2019-11-17T11:01:36Z</time>
      </trkpt>
      <trkpt lat="59.253656" lon="17.923504">
        <ele>69.2</ele>
        <time>2019-11-17T11:01:39Z</time>
      </trkpt>
      <trkpt lat="59.253656" lon="17.923564">
        <ele>69.2</ele>
        <time>2019-11-17T11:01:43Z</time>
      </trkpt>
      <trkpt lat="59.253665" lon="17.923631">
        <ele>69.2</ele>
        <time>2019-11-17T11:01:47Z</time>
      </trkpt>
      <trkpt lat="59.253681" lon="17.923685">
        <ele>69.2</ele>
        <time>2019-11-17T11:01:51Z</time>
      </trkpt>
      <trkpt lat="59.2537" lon="17.923734">
        <ele>69.2</ele>
        <time>2019-11-17T11:01:56Z</time>
      </trkpt>
      <trkpt lat="59.253711" lon="17.923788">
        <ele>69.2</ele>
        <time>2019-11-17T11:02:00Z</time>
      </trkpt>
      <trkpt lat="59.253724" lon="17.923847">
        <ele>68.9</ele>
        <time>2019-11-17T11:02:04Z</time>
      </trkpt>
      <trkpt lat="59.253735" lon="17.923908">
        <ele>68.7</ele>
        <time>2019-11-17T11:02:08Z</time>
      </trkpt>
      <trkpt lat="59.253742" lon="17.923969">
        <ele>68.5</ele>
        <time>2019-11-17T11:02:13Z</time>
      </trkpt>
      <trkpt lat="59.253749" lon="17.924027">
        <ele>68.2</ele>
        <time>2019-11-17T11:02:32Z</time>
      </trkpt>
      <trkpt lat="59.253753" lon="17.924092">
        <ele>68</ele>
        <time>2019-11-17T11:02:37Z</time>
      </trkpt>
      <trkpt lat="59.253757" lon="17.924147">
        <ele>67.8</ele>
        <time>2019-11-17T11:02:40Z</time>
      </trkpt>
      <trkpt lat="59.253749" lon="17.924224">
        <ele>67.5</ele>
        <time>2019-11-17T11:02:45Z</time>
      </trkpt>
      <trkpt lat="59.253737" lon="17.924315">
        <ele>67.1</ele>
        <time>2019-11-17T11:02:48Z</time>
      </trkpt>
      <trkpt lat="59.253742" lon="17.924368">
        <ele>66.9</ele>
        <time>2019-11-17T11:02:56Z</time>
      </trkpt>
      <trkpt lat="59.253726" lon="17.924424">
        <ele>66.6</ele>
        <time>2019-11-17T11:03:02Z</time>
      </trkpt>
      <trkpt lat="59.253691" lon="17.924446">
        <ele>66.3</ele>
        <time>2019-11-17T11:03:09Z</time>
      </trkpt>
      <trkpt lat="59.253661" lon="17.924471">
        <ele>66.1</ele>
        <time>2019-11-17T11:03:15Z</time>
      </trkpt>
      <trkpt lat="59.253629" lon="17.924481">
        <ele>65.9</ele>
        <time>2019-11-17T11:03:19Z</time>
      </trkpt>
      <trkpt lat="59.253589" lon="17.924489">
        <ele>65.6</ele>
        <time>2019-11-17T11:03:22Z</time>
      </trkpt>
      <trkpt lat="59.253547" lon="17.924495">
        <ele>64.8</ele>
        <time>2019-11-17T11:03:25Z</time>
      </trkpt>
      <trkpt lat="59.253517" lon="17.924485">
        <ele>64.3</ele>
        <time>2019-11-17T11:03:28Z</time>
      </trkpt>
      <trkpt lat="59.253486" lon="17.924488">
        <ele>63.9</ele>
        <time>2019-11-17T11:03:30Z</time>
      </trkpt>
      <trkpt lat="59.253454" lon="17.924518">
        <ele>63.4</ele>
        <time>2019-11-17T11:03:35Z</time>
      </trkpt>
      <trkpt lat="59.253427" lon="17.924538">
        <ele>63</ele>
        <time>2019-11-17T11:03:38Z</time>
      </trkpt>
      <trkpt lat="59.253396" lon="17.924532">
        <ele>62.5</ele>
        <time>2019-11-17T11:03:44Z</time>
      </trkpt>
      <trkpt lat="59.253369" lon="17.924539">
        <ele>62.1</ele>
        <time>2019-11-17T11:03:48Z</time>
      </trkpt>
      <trkpt lat="59.253335" lon="17.924557">
        <ele>61.6</ele>
        <time>2019-11-17T11:03:51Z</time>
      </trkpt>
      <trkpt lat="59.253304" lon="17.924561">
        <ele>61.3</ele>
        <time>2019-11-17T11:03:55Z</time>
      </trkpt>
      <trkpt lat="59.253266" lon="17.924558">
        <ele>61.2</ele>
        <time>2019-11-17T11:03:58Z</time>
      </trkpt>
      <trkpt lat="59.253236" lon="17.924562">
        <ele>61.2</ele>
        <time>2019-11-17T11:04:01Z</time>
      </trkpt>
      <trkpt lat="59.253208" lon="17.924552">
        <ele>61.2</ele>
        <time>2019-11-17T11:04:08Z</time>
      </trkpt>
      <trkpt lat="59.25318" lon="17.924599">
        <ele>61.2</ele>
        <time>2019-11-17T11:04:23Z</time>
      </trkpt>
      <trkpt lat="59.253168" lon="17.924655">
        <ele>61.1</ele>
        <time>2019-11-17T11:04:34Z</time>
      </trkpt>
      <trkpt lat="59.253191" lon="17.924733">
        <ele>61.1</ele>
        <time>2019-11-17T11:04:47Z</time>
      </trkpt>
      <trkpt lat="59.253217" lon="17.924665">
        <ele>61.1</ele>
        <time>2019-11-17T11:05:43Z</time>
      </trkpt>
      <trkpt lat="59.253214" lon="17.924612">
        <ele>61.2</ele>
        <time>2019-11-17T11:05:45Z</time>
      </trkpt>
      <trkpt lat="59.253205" lon="17.924552">
        <ele>61.2</ele>
        <time>2019-11-17T11:05:47Z</time>
      </trkpt>
      <trkpt lat="59.253191" lon="17.924499">
        <ele>61.2</ele>
        <time>2019-11-17T11:05:53Z</time>
      </trkpt>
      <trkpt lat="59.25316" lon="17.92447">
        <ele>61.2</ele>
        <time>2019-11-17T11:06:02Z</time>
      </trkpt>
      <trkpt lat="59.25315" lon="17.924415">
        <ele>61.3</ele>
        <time>2019-11-17T11:06:16Z</time>
      </trkpt>
      <trkpt lat="59.253183" lon="17.924407">
        <ele>61.3</ele>
        <time>2019-11-17T11:06:32Z</time>
      </trkpt>
      <trkpt lat="59.253207" lon="17.92438">
        <ele>62.7</ele>
        <time>2019-11-17T11:06:52Z</time>
      </trkpt>
      <trkpt lat="59.253225" lon="17.924319">
        <ele>63.4</ele>
        <time>2019-11-17T11:07:04Z</time>
      </trkpt>
      <trkpt lat="59.253238" lon="17.924262">
        <ele>63.9</ele>
        <time>2019-11-17T11:07:07Z</time>
      </trkpt>
      <trkpt lat="59.253244" lon="17.92421">
        <ele>64.4</ele>
        <time>2019-11-17T11:07:12Z</time>
      </trkpt>
      <trkpt lat="59.25325" lon="17.924154">
        <ele>64.9</ele>
        <time>2019-11-17T11:07:24Z</time>
      </trkpt>
      <trkpt lat="59.253253" lon="17.9241">
        <ele>65.3</ele>
        <time>2019-11-17T11:07:46Z</time>
      </trkpt>
      <trkpt lat="59.253286" lon="17.924085">
        <ele>65.8</ele>
        <time>2019-11-17T11:08:08Z</time>
      </trkpt>
      <trkpt lat="59.253315" lon="17.924107">
        <ele>66.2</ele>
        <time>2019-11-17T11:08:26Z</time>
      </trkpt>
      <trkpt lat="59.253334" lon="17.924158">
        <ele>66.6</ele>
        <time>2019-11-17T11:08:30Z</time>
      </trkpt>
      <trkpt lat="59.253353" lon="17.924214">
        <ele>66.1</ele>
        <time>2019-11-17T11:08:35Z</time>
      </trkpt>
      <trkpt lat="59.253381" lon="17.924237">
        <ele>65.6</ele>
        <time>2019-11-17T11:08:43Z</time>
      </trkpt>
      <trkpt lat="59.253363" lon="17.924308">
        <ele>64.9</ele>
        <time>2019-11-17T11:08:50Z</time>
      </trkpt>
      <trkpt lat="59.253343" lon="17.924351">
        <ele>64.2</ele>
        <time>2019-11-17T11:08:52Z</time>
      </trkpt>
      <trkpt lat="59.253312" lon="17.924415">
        <ele>63.2</ele>
        <time>2019-11-17T11:08:56Z</time>
      </trkpt>
      <trkpt lat="59.25328" lon="17.924458">
        <ele>62.3</ele>
        <time>2019-11-17T11:09:00Z</time>
      </trkpt>
      <trkpt lat="59.25325" lon="17.924484">
        <ele>61.3</ele>
        <time>2019-11-17T11:09:03Z</time>
      </trkpt>
      <trkpt lat="59.253217" lon="17.92451">
        <ele>61.3</ele>
        <time>2019-11-17T11:09:07Z</time>
      </trkpt>
      <trkpt lat="59.253189" lon="17.92454">
        <ele>61.2</ele>
        <time>2019-11-17T11:09:10Z</time>
      </trkpt>
      <trkpt lat="59.253182" lon="17.924596">
        <ele>61.2</ele>
        <time>2019-11-17T11:09:15Z</time>
      </trkpt>
      <trkpt lat="59.253192" lon="17.924654">
        <ele>61.2</ele>
        <time>2019-11-17T11:09:29Z</time>
      </trkpt>
      <trkpt lat="59.253191" lon="17.924708">
        <ele>61.2</ele>
        <time>2019-11-17T11:09:37Z</time>
      </trkpt>
      <trkpt lat="59.253182" lon="17.924759">
        <ele>61.2</ele>
        <time>2019-11-17T11:10:04Z</time>
      </trkpt>
      <trkpt lat="59.25319" lon="17.924811">
        <ele>61.1</ele>
        <time>2019-11-17T11:10:28Z</time>
      </trkpt>
      <trkpt lat="59.253213" lon="17.924854">
        <ele>61.1</ele>
        <time>2019-11-17T11:10:57Z</time>
      </trkpt>
      <trkpt lat="59.253242" lon="17.924819">
        <ele>61.1</ele>
        <time>2019-11-17T11:11:10Z</time>
      </trkpt>
      <trkpt lat="59.25322" lon="17.924848">
        <ele>61.1</ele>
        <time>2019-11-17T11:11:38Z</time>
      </trkpt>
      <trkpt lat="59.253181" lon="17.924868">
        <ele>61</ele>
        <time>2019-11-17T11:11:43Z</time>
      </trkpt>
      <trkpt lat="59.253153" lon="17.924887">
        <ele>61</ele>
        <time>2019-11-17T11:11:45Z</time>
      </trkpt>
      <trkpt lat="59.253121" lon="17.9249">
        <ele>61</ele>
        <time>2019-11-17T11:11:50Z</time>
      </trkpt>
      <trkpt lat="59.253266" lon="17.924772">
        <ele>60.9</ele>
        <time>2019-11-17T11:12:47Z</time>
      </trkpt>
      <trkpt lat="59.253294" lon="17.924787">
        <ele>60.9</ele>
        <time>2019-11-17T11:12:55Z</time>
      </trkpt>
      <trkpt lat="59.253278" lon="17.924831">
        <ele>60.8</ele>
        <time>2019-11-17T11:13:09Z</time>
      </trkpt>
      <trkpt lat="59.253265" lon="17.924782">
        <ele>60.8</ele>
        <time>2019-11-17T11:13:58Z</time>
      </trkpt>
      <trkpt lat="59.253236" lon="17.924782">
        <ele>60.8</ele>
        <time>2019-11-17T11:14:51Z</time>
      </trkpt>
      <trkpt lat="59.253221" lon="17.92473">
        <ele>60.7</ele>
        <time>2019-11-17T11:15:26Z</time>
      </trkpt>
      <trkpt lat="59.253215" lon="17.924785">
        <ele>60.7</ele>
        <time>2019-11-17T11:16:28Z</time>
      </trkpt>
      <trkpt lat="59.253197" lon="17.924827">
        <ele>60.7</ele>
        <time>2019-11-17T11:17:27Z</time>
      </trkpt>
      <trkpt lat="59.25315" lon="17.924899">
        <ele>60.6</ele>
        <time>2019-11-17T11:17:30Z</time>
      </trkpt>
      <trkpt lat="59.253086" lon="17.924883">
        <ele>60.6</ele>
        <time>2019-11-17T11:17:37Z</time>
      </trkpt>
      <trkpt lat="59.253013" lon="17.924763">
        <ele>60.5</ele>
        <time>2019-11-17T11:17:39Z</time>
      </trkpt>
      <trkpt lat="59.252984" lon="17.92473">
        <ele>60.5</ele>
        <time>2019-11-17T11:17:41Z</time>
      </trkpt>
      <trkpt lat="59.252958" lon="17.924699">
        <ele>60.5</ele>
        <time>2019-11-17T11:17:43Z</time>
      </trkpt>
      <trkpt lat="59.252933" lon="17.924677">
        <ele>60.5</ele>
        <time>2019-11-17T11:17:46Z</time>
      </trkpt>
      <trkpt lat="59.252974" lon="17.924685">
        <ele>60.5</ele>
        <time>2019-11-17T11:18:19Z</time>
      </trkpt>
      <trkpt lat="59.253017" lon="17.924729">
        <ele>60.4</ele>
        <time>2019-11-17T11:18:21Z</time>
      </trkpt>
      <trkpt lat="59.253041" lon="17.924687">
        <ele>60.4</ele>
        <time>2019-11-17T11:18:29Z</time>
      </trkpt>
      <trkpt lat="59.253069" lon="17.924699">
        <ele>60.4</ele>
        <time>2019-11-17T11:18:35Z</time>
      </trkpt>
      <trkpt lat="59.253085" lon="17.924744">
        <ele>60.4</ele>
        <time>2019-11-17T11:18:45Z</time>
      </trkpt>
      <trkpt lat="59.253112" lon="17.924735">
        <ele>60.3</ele>
        <time>2019-11-17T11:19:50Z</time>
      </trkpt>
      <trkpt lat="59.253129" lon="17.924784">
        <ele>60.3</ele>
        <time>2019-11-17T11:20:20Z</time>
      </trkpt>
      <trkpt lat="59.253156" lon="17.924755">
        <ele>60.3</ele>
        <time>2019-11-17T11:20:58Z</time>
      </trkpt>
      <trkpt lat="59.253176" lon="17.924693">
        <ele>60.3</ele>
        <time>2019-11-17T11:21:03Z</time>
      </trkpt>
      <trkpt lat="59.253204" lon="17.92463">
        <ele>60.3</ele>
        <time>2019-11-17T11:21:07Z</time>
      </trkpt>
      <trkpt lat="59.253224" lon="17.924575">
        <ele>60.2</ele>
        <time>2019-11-17T11:21:12Z</time>
      </trkpt>
      <trkpt lat="59.25325" lon="17.924625">
        <ele>60.2</ele>
        <time>2019-11-17T11:21:33Z</time>
      </trkpt>
      <trkpt lat="59.253251" lon="17.924709">
        <ele>60.2</ele>
        <time>2019-11-17T11:21:36Z</time>
      </trkpt>
      <trkpt lat="59.253282" lon="17.92477">
        <ele>60.2</ele>
        <time>2019-11-17T11:21:39Z</time>
      </trkpt>
      <trkpt lat="59.253253" lon="17.924751">
        <ele>60.2</ele>
        <time>2019-11-17T11:22:09Z</time>
      </trkpt>
      <trkpt lat="59.253249" lon="17.924697">
        <ele>60.1</ele>
        <time>2019-11-17T11:22:24Z</time>
      </trkpt>
      <trkpt lat="59.253278" lon="17.924716">
        <ele>60.1</ele>
        <time>2019-11-17T11:22:56Z</time>
      </trkpt>
      <trkpt lat="59.25325" lon="17.924697">
        <ele>60.1</ele>
        <time>2019-11-17T11:23:36Z</time>
      </trkpt>
      <trkpt lat="59.253277" lon="17.924705">
        <ele>60.1</ele>
        <time>2019-11-17T11:24:04Z</time>
      </trkpt>
      <trkpt lat="59.253295" lon="17.924745">
        <ele>60.1</ele>
        <time>2019-11-17T11:27:28Z</time>
      </trkpt>
      <trkpt lat="59.253274" lon="17.92471">
        <ele>60.1</ele>
        <time>2019-11-17T11:30:26Z</time>
      </trkpt>
      <trkpt lat="59.253284" lon="17.924659">
        <ele>60.1</ele>
        <time>2019-11-17T11:32:01Z</time>
      </trkpt>
      <trkpt lat="59.253257" lon="17.924681">
        <ele>60</ele>
        <time>2019-11-17T11:32:33Z</time>
      </trkpt>
      <trkpt lat="59.253257" lon="17.924735">
        <ele>60</ele>
        <time>2019-11-17T11:33:21Z</time>
      </trkpt>
      <trkpt lat="59.253235" lon="17.924703">
        <ele>60</ele>
        <time>2019-11-17T11:35:56Z</time>
      </trkpt>
      <trkpt lat="59.25323" lon="17.92465">
        <ele>60</ele>
        <time>2019-11-17T11:36:36Z</time>
      </trkpt>
      <trkpt lat="59.253203" lon="17.924653">
        <ele>60</ele>
        <time>2019-11-17T11:37:16Z</time>
      </trkpt>
      <trkpt lat="59.253229" lon="17.924676">
        <ele>59.9</ele>
        <time>2019-11-17T11:38:41Z</time>
      </trkpt>
      <trkpt lat="59.253258" lon="17.924673">
        <ele>59.9</ele>
        <time>2019-11-17T11:39:42Z</time>
      </trkpt>
      <trkpt lat="59.253248" lon="17.924723">
        <ele>59.9</ele>
        <time>2019-11-17T11:40:20Z</time>
      </trkpt>
      <trkpt lat="59.253253" lon="17.92467">
        <ele>59.9</ele>
        <time>2019-11-17T11:41:02Z</time>
      </trkpt>
      <trkpt lat="59.253241" lon="17.92462">
        <ele>59.8</ele>
        <time>2019-11-17T11:41:17Z</time>
      </trkpt>
      <trkpt lat="59.253222" lon="17.924574">
        <ele>59.8</ele>
        <time>2019-11-17T11:42:00Z</time>
      </trkpt>
      <trkpt lat="59.253249" lon="17.924583">
        <ele>59.8</ele>
        <time>2019-11-17T11:44:14Z</time>
      </trkpt>
      <trkpt lat="59.25327" lon="17.924616">
        <ele>59.8</ele>
        <time>2019-11-17T11:44:45Z</time>
      </trkpt>
      <trkpt lat="59.25325" lon="17.924651">
        <ele>59.7</ele>
        <time>2019-11-17T11:46:59Z</time>
      </trkpt>
      <trkpt lat="59.253221" lon="17.924671">
        <ele>59.7</ele>
        <time>2019-11-17T11:47:26Z</time>
      </trkpt>
      <trkpt lat="59.253206" lon="17.924719">
        <ele>59.7</ele>
        <time>2019-11-17T11:47:43Z</time>
      </trkpt>
      <trkpt lat="59.253231" lon="17.924691">
        <ele>59.7</ele>
        <time>2019-11-17T11:48:02Z</time>
      </trkpt>
      <trkpt lat="59.253257" lon="17.924704">
        <ele>59.6</ele>
        <time>2019-11-17T11:48:43Z</time>
      </trkpt>
      <trkpt lat="59.253241" lon="17.924658">
        <ele>59.6</ele>
        <time>2019-11-17T11:52:00Z</time>
      </trkpt>
      <trkpt lat="59.25324" lon="17.924711">
        <ele>59.5</ele>
        <time>2019-11-17T11:53:32Z</time>
      </trkpt>
      <trkpt lat="59.253225" lon="17.924758">
        <ele>59.5</ele>
        <time>2019-11-17T11:55:06Z</time>
      </trkpt>
      <trkpt lat="59.253211" lon="17.924703">
        <ele>59.5</ele>
        <time>2019-11-17T11:55:29Z</time>
      </trkpt>
      <trkpt lat="59.253188" lon="17.924652">
        <ele>59.4</ele>
        <time>2019-11-17T11:55:49Z</time>
      </trkpt>
      <trkpt lat="59.253163" lon="17.924627">
        <ele>59.4</ele>
        <time>2019-11-17T11:56:21Z</time>
      </trkpt>
      <trkpt lat="59.253151" lon="17.924681">
        <ele>59.3</ele>
        <time>2019-11-17T11:57:28Z</time>
      </trkpt>
      <trkpt lat="59.253182" lon="17.924685">
        <ele>59.3</ele>
        <time>2019-11-17T11:57:55Z</time>
      </trkpt>
      <trkpt lat="59.253208" lon="17.924705">
        <ele>59.2</ele>
        <time>2019-11-17T11:59:00Z</time>
      </trkpt>
      <trkpt lat="59.253214" lon="17.92476">
        <ele>59.2</ele>
        <time>2019-11-17T11:59:04Z</time>
      </trkpt>
      <trkpt lat="59.253217" lon="17.924833">
        <ele>59.1</ele>
        <time>2019-11-17T11:59:08Z</time>
      </trkpt>
      <trkpt lat="59.253223" lon="17.924895">
        <ele>59.1</ele>
        <time>2019-11-17T11:59:10Z</time>
      </trkpt>
      <trkpt lat="59.253231" lon="17.924985">
        <ele>59</ele>
        <time>2019-11-17T11:59:14Z</time>
      </trkpt>
      <trkpt lat="59.253239" lon="17.925036">
        <ele>59</ele>
        <time>2019-11-17T11:59:17Z</time>
      </trkpt>
      <trkpt lat="59.253246" lon="17.925096">
        <ele>58.9</ele>
        <time>2019-11-17T11:59:19Z</time>
      </trkpt>
      <trkpt lat="59.25325" lon="17.92516">
        <ele>58.9</ele>
        <time>2019-11-17T11:59:23Z</time>
      </trkpt>
      <trkpt lat="59.253261" lon="17.925209">
        <ele>58.8</ele>
        <time>2019-11-17T11:59:27Z</time>
      </trkpt>
      <trkpt lat="59.253274" lon="17.92526">
        <ele>58.7</ele>
        <time>2019-11-17T11:59:32Z</time>
      </trkpt>
      <trkpt lat="59.253284" lon="17.925313">
        <ele>58.7</ele>
        <time>2019-11-17T11:59:37Z</time>
      </trkpt>
      <trkpt lat="59.253291" lon="17.925377">
        <ele>58.6</ele>
        <time>2019-11-17T11:59:44Z</time>
      </trkpt>
      <trkpt lat="59.253286" lon="17.925436">
        <ele>58.5</ele>
        <time>2019-11-17T11:59:49Z</time>
      </trkpt>
      <trkpt lat="59.253285" lon="17.925518">
        <ele>58.4</ele>
        <time>2019-11-17T11:59:53Z</time>
      </trkpt>
      <trkpt lat="59.253278" lon="17.925572">
        <ele>58.4</ele>
        <time>2019-11-17T11:59:55Z</time>
      </trkpt>
      <trkpt lat="59.253269" lon="17.925637">
        <ele>58.3</ele>
        <time>2019-11-17T11:59:59Z</time>
      </trkpt>
      <trkpt lat="59.253265" lon="17.925705">
        <ele>58.2</ele>
        <time>2019-11-17T12:00:03Z</time>
      </trkpt>
      <trkpt lat="59.253273" lon="17.925757">
        <ele>58.2</ele>
        <time>2019-11-17T12:00:05Z</time>
      </trkpt>
      <trkpt lat="59.25328" lon="17.925811">
        <ele>58.1</ele>
        <time>2019-11-17T12:00:09Z</time>
      </trkpt>
      <trkpt lat="59.253279" lon="17.925864">
        <ele>58.1</ele>
        <time>2019-11-17T12:00:17Z</time>
      </trkpt>
      <trkpt lat="59.253278" lon="17.925922">
        <ele>58</ele>
        <time>2019-11-17T12:00:21Z</time>
      </trkpt>
      <trkpt lat="59.253277" lon="17.925983">
        <ele>58</ele>
        <time>2019-11-17T12:00:25Z</time>
      </trkpt>
      <trkpt lat="59.253261" lon="17.926047">
        <ele>57.9</ele>
        <time>2019-11-17T12:00:29Z</time>
      </trkpt>
      <trkpt lat="59.253254" lon="17.926123">
        <ele>57.7</ele>
        <time>2019-11-17T12:00:33Z</time>
      </trkpt>
      <trkpt lat="59.253249" lon="17.926224">
        <ele>57.5</ele>
        <time>2019-11-17T12:00:36Z</time>
      </trkpt>
      <trkpt lat="59.253247" lon="17.926256">
        <ele>57.5</ele>
        <time>2019-11-17T12:00:37Z</time>
      </trkpt>
      <trkpt lat="59.25325" lon="17.926337">
        <ele>57.4</ele>
        <time>2019-11-17T12:00:41Z</time>
      </trkpt>
      <trkpt lat="59.253267" lon="17.9264">
        <ele>57.2</ele>
        <time>2019-11-17T12:00:45Z</time>
      </trkpt>
      <trkpt lat="59.253277" lon="17.926473">
        <ele>57.1</ele>
        <time>2019-11-17T12:00:49Z</time>
      </trkpt>
      <trkpt lat="59.253287" lon="17.926547">
        <ele>57</ele>
        <time>2019-11-17T12:00:54Z</time>
      </trkpt>
      <trkpt lat="59.253288" lon="17.92662">
        <ele>56.8</ele>
        <time>2019-11-17T12:01:00Z</time>
      </trkpt>
      <trkpt lat="59.253292" lon="17.92668">
        <ele>56.7</ele>
        <time>2019-11-17T12:01:07Z</time>
      </trkpt>
      <trkpt lat="59.253276" lon="17.926743">
        <ele>56.5</ele>
        <time>2019-11-17T12:01:09Z</time>
      </trkpt>
      <trkpt lat="59.253262" lon="17.926798">
        <ele>56.4</ele>
        <time>2019-11-17T12:01:13Z</time>
      </trkpt>
      <trkpt lat="59.253253" lon="17.926852">
        <ele>56.2</ele>
        <time>2019-11-17T12:01:18Z</time>
      </trkpt>
      <trkpt lat="59.253245" lon="17.926904">
        <ele>56.1</ele>
        <time>2019-11-17T12:01:22Z</time>
      </trkpt>
      <trkpt lat="59.25325" lon="17.926963">
        <ele>55.9</ele>
        <time>2019-11-17T12:01:25Z</time>
      </trkpt>
      <trkpt lat="59.253256" lon="17.927029">
        <ele>55.7</ele>
        <time>2019-11-17T12:01:30Z</time>
      </trkpt>
      <trkpt lat="59.253252" lon="17.927084">
        <ele>55.5</ele>
        <time>2019-11-17T12:01:33Z</time>
      </trkpt>
      <trkpt lat="59.253217" lon="17.927129">
        <ele>55.3</ele>
        <time>2019-11-17T12:01:42Z</time>
      </trkpt>
      <trkpt lat="59.253201" lon="17.927172">
        <ele>55.4</ele>
        <time>2019-11-17T12:01:46Z</time>
      </trkpt>
      <trkpt lat="59.253179" lon="17.927218">
        <ele>55.4</ele>
        <time>2019-11-17T12:01:51Z</time>
      </trkpt>
      <trkpt lat="59.253152" lon="17.927252">
        <ele>55.5</ele>
        <time>2019-11-17T12:01:53Z</time>
      </trkpt>
      <trkpt lat="59.253138" lon="17.927308">
        <ele>55.5</ele>
        <time>2019-11-17T12:01:58Z</time>
      </trkpt>
      <trkpt lat="59.253114" lon="17.927343">
        <ele>56</ele>
        <time>2019-11-17T12:02:02Z</time>
      </trkpt>
      <trkpt lat="59.253088" lon="17.927382">
        <ele>56.2</ele>
        <time>2019-11-17T12:02:06Z</time>
      </trkpt>
      <trkpt lat="59.253075" lon="17.927434">
        <ele>56.4</ele>
        <time>2019-11-17T12:02:10Z</time>
      </trkpt>
      <trkpt lat="59.25306" lon="17.927482">
        <ele>56.5</ele>
        <time>2019-11-17T12:02:13Z</time>
      </trkpt>
      <trkpt lat="59.253041" lon="17.927521">
        <ele>56.6</ele>
        <time>2019-11-17T12:02:16Z</time>
      </trkpt>
      <trkpt lat="59.253018" lon="17.927559">
        <ele>56.8</ele>
        <time>2019-11-17T12:02:19Z</time>
      </trkpt>
      <trkpt lat="59.253001" lon="17.927602">
        <ele>56.9</ele>
        <time>2019-11-17T12:02:22Z</time>
      </trkpt>
      <trkpt lat="59.252996" lon="17.927664">
        <ele>57.1</ele>
        <time>2019-11-17T12:02:26Z</time>
      </trkpt>
      <trkpt lat="59.252999" lon="17.927731">
        <ele>57.6</ele>
        <time>2019-11-17T12:02:58Z</time>
      </trkpt>
      <trkpt lat="59.253021" lon="17.927775">
        <ele>58.1</ele>
        <time>2019-11-17T12:03:45Z</time>
      </trkpt>
      <trkpt lat="59.253044" lon="17.927832">
        <ele>58.6</ele>
        <time>2019-11-17T12:04:06Z</time>
      </trkpt>
      <trkpt lat="59.253067" lon="17.92786">
        <ele>59.1</ele>
        <time>2019-11-17T12:04:09Z</time>
      </trkpt>
      <trkpt lat="59.25304" lon="17.927856">
        <ele>58.9</ele>
        <time>2019-11-17T12:04:48Z</time>
      </trkpt>
      <trkpt lat="59.253013" lon="17.927859">
        <ele>58.7</ele>
        <time>2019-11-17T12:05:04Z</time>
      </trkpt>
      <trkpt lat="59.253" lon="17.927907">
        <ele>58.8</ele>
        <time>2019-11-17T12:05:12Z</time>
      </trkpt>
      <trkpt lat="59.252982" lon="17.92796">
        <ele>58.9</ele>
        <time>2019-11-17T12:05:19Z</time>
      </trkpt>
      <trkpt lat="59.25296" lon="17.927992">
        <ele>58.9</ele>
        <time>2019-11-17T12:05:23Z</time>
      </trkpt>
      <trkpt lat="59.252932" lon="17.92805">
        <ele>58.9</ele>
        <time>2019-11-17T12:05:27Z</time>
      </trkpt>
      <trkpt lat="59.25292" lon="17.928099">
        <ele>59</ele>
        <time>2019-11-17T12:05:38Z</time>
      </trkpt>
      <trkpt lat="59.252907" lon="17.928148">
        <ele>59</ele>
        <time>2019-11-17T12:05:51Z</time>
      </trkpt>
      <trkpt lat="59.252928" lon="17.92823">
        <ele>59.5</ele>
        <time>2019-11-17T12:05:59Z</time>
      </trkpt>
      <trkpt lat="59.252929" lon="17.928307">
        <ele>59.6</ele>
        <time>2019-11-17T12:06:01Z</time>
      </trkpt>
      <trkpt lat="59.252921" lon="17.928362">
        <ele>59.9</ele>
        <time>2019-11-17T12:06:06Z</time>
      </trkpt>
      <trkpt lat="59.252925" lon="17.928418">
        <ele>60</ele>
        <time>2019-11-17T12:06:13Z</time>
      </trkpt>
      <trkpt lat="59.252907" lon="17.928459">
        <ele>60</ele>
        <time>2019-11-17T12:06:21Z</time>
      </trkpt>
      <trkpt lat="59.252884" lon="17.928503">
        <ele>60</ele>
        <time>2019-11-17T12:06:28Z</time>
      </trkpt>
      <trkpt lat="59.252874" lon="17.928554">
        <ele>60.1</ele>
        <time>2019-11-17T12:06:32Z</time>
      </trkpt>
      <trkpt lat="59.252868" lon="17.928612">
        <ele>60</ele>
        <time>2019-11-17T12:06:36Z</time>
      </trkpt>
      <trkpt lat="59.252851" lon="17.928656">
        <ele>60.1</ele>
        <time>2019-11-17T12:06:43Z</time>
      </trkpt>
      <trkpt lat="59.252848" lon="17.928729">
        <ele>60.1</ele>
        <time>2019-11-17T12:06:50Z</time>
      </trkpt>
      <trkpt lat="59.252844" lon="17.928781">
        <ele>60.2</ele>
        <time>2019-11-17T12:06:56Z</time>
      </trkpt>
      <trkpt lat="59.252844" lon="17.928835">
        <ele>60.3</ele>
        <time>2019-11-17T12:07:01Z</time>
      </trkpt>
      <trkpt lat="59.252855" lon="17.928902">
        <ele>60.6</ele>
        <time>2019-11-17T12:07:10Z</time>
      </trkpt>
      <trkpt lat="59.252865" lon="17.928964">
        <ele>60.8</ele>
        <time>2019-11-17T12:07:16Z</time>
      </trkpt>
      <trkpt lat="59.252882" lon="17.929027">
        <ele>61</ele>
        <time>2019-11-17T12:07:21Z</time>
      </trkpt>
      <trkpt lat="59.252894" lon="17.929082">
        <ele>61.1</ele>
        <time>2019-11-17T12:07:25Z</time>
      </trkpt>
      <trkpt lat="59.252905" lon="17.92913">
        <ele>61.4</ele>
        <time>2019-11-17T12:07:29Z</time>
      </trkpt>
      <trkpt lat="59.252917" lon="17.929196">
        <ele>61.7</ele>
        <time>2019-11-17T12:07:34Z</time>
      </trkpt>
      <trkpt lat="59.252934" lon="17.929244">
        <ele>61.8</ele>
        <time>2019-11-17T12:07:38Z</time>
      </trkpt>
      <trkpt lat="59.252955" lon="17.929287">
        <ele>62</ele>
        <time>2019-11-17T12:07:45Z</time>
      </trkpt>
      <trkpt lat="59.252956" lon="17.929347">
        <ele>62.2</ele>
        <time>2019-11-17T12:07:53Z</time>
      </trkpt>
      <trkpt lat="59.252963" lon="17.929404">
        <ele>62.5</ele>
        <time>2019-11-17T12:08:00Z</time>
      </trkpt>
      <trkpt lat="59.252945" lon="17.929454">
        <ele>62.4</ele>
        <time>2019-11-17T12:08:07Z</time>
      </trkpt>
      <trkpt lat="59.252918" lon="17.929489">
        <ele>62.3</ele>
        <time>2019-11-17T12:08:11Z</time>
      </trkpt>
      <trkpt lat="59.252898" lon="17.929526">
        <ele>62.2</ele>
        <time>2019-11-17T12:08:15Z</time>
      </trkpt>
      <trkpt lat="59.252873" lon="17.929581">
        <ele>62.2</ele>
        <time>2019-11-17T12:08:19Z</time>
      </trkpt>
      <trkpt lat="59.252855" lon="17.929627">
        <ele>62.1</ele>
        <time>2019-11-17T12:08:23Z</time>
      </trkpt>
      <trkpt lat="59.252834" lon="17.92967">
        <ele>62</ele>
        <time>2019-11-17T12:08:27Z</time>
      </trkpt>
      <trkpt lat="59.252809" lon="17.92972">
        <ele>61.9</ele>
        <time>2019-11-17T12:08:32Z</time>
      </trkpt>
      <trkpt lat="59.25279" lon="17.929758">
        <ele>61.8</ele>
        <time>2019-11-17T12:08:35Z</time>
      </trkpt>
      <trkpt lat="59.252771" lon="17.9298">
        <ele>61.7</ele>
        <time>2019-11-17T12:08:37Z</time>
      </trkpt>
      <trkpt lat="59.252748" lon="17.929853">
        <ele>61.6</ele>
        <time>2019-11-17T12:08:43Z</time>
      </trkpt>
      <trkpt lat="59.252724" lon="17.929895">
        <ele>61.5</ele>
        <time>2019-11-17T12:08:47Z</time>
      </trkpt>
      <trkpt lat="59.252694" lon="17.929935">
        <ele>61.2</ele>
        <time>2019-11-17T12:08:52Z</time>
      </trkpt>
      <trkpt lat="59.252662" lon="17.92998">
        <ele>61.1</ele>
        <time>2019-11-17T12:08:57Z</time>
      </trkpt>
      <trkpt lat="59.252638" lon="17.930032">
        <ele>61.1</ele>
        <time>2019-11-17T12:09:01Z</time>
      </trkpt>
      <trkpt lat="59.252618" lon="17.930088">
        <ele>61</ele>
        <time>2019-11-17T12:09:05Z</time>
      </trkpt>
      <trkpt lat="59.252602" lon="17.930155">
        <ele>60.9</ele>
        <time>2019-11-17T12:09:11Z</time>
      </trkpt>
      <trkpt lat="59.252586" lon="17.930202">
        <ele>60.9</ele>
        <time>2019-11-17T12:09:15Z</time>
      </trkpt>
      <trkpt lat="59.252565" lon="17.930241">
        <ele>60.8</ele>
        <time>2019-11-17T12:09:20Z</time>
      </trkpt>
      <trkpt lat="59.25254" lon="17.93027">
        <ele>60.7</ele>
        <time>2019-11-17T12:09:27Z</time>
      </trkpt>
      <trkpt lat="59.252519" lon="17.930323">
        <ele>60.7</ele>
        <time>2019-11-17T12:09:31Z</time>
      </trkpt>
      <trkpt lat="59.252501" lon="17.930367">
        <ele>60.8</ele>
        <time>2019-11-17T12:09:35Z</time>
      </trkpt>
      <trkpt lat="59.252492" lon="17.930421">
        <ele>61</ele>
        <time>2019-11-17T12:09:39Z</time>
      </trkpt>
      <trkpt lat="59.252483" lon="17.930497">
        <ele>61.1</ele>
        <time>2019-11-17T12:09:43Z</time>
      </trkpt>
      <trkpt lat="59.252471" lon="17.930546">
        <ele>61.3</ele>
        <time>2019-11-17T12:09:47Z</time>
      </trkpt>
      <trkpt lat="59.252453" lon="17.930587">
        <ele>61.2</ele>
        <time>2019-11-17T12:09:51Z</time>
      </trkpt>
      <trkpt lat="59.25243" lon="17.930637">
        <ele>61.4</ele>
        <time>2019-11-17T12:09:57Z</time>
      </trkpt>
      <trkpt lat="59.252408" lon="17.930694">
        <ele>61.4</ele>
        <time>2019-11-17T12:10:01Z</time>
      </trkpt>
      <trkpt lat="59.252389" lon="17.930735">
        <ele>61.6</ele>
        <time>2019-11-17T12:10:05Z</time>
      </trkpt>
      <trkpt lat="59.252362" lon="17.930769">
        <ele>61.7</ele>
        <time>2019-11-17T12:10:09Z</time>
      </trkpt>
      <trkpt lat="59.252338" lon="17.930796">
        <ele>61.7</ele>
        <time>2019-11-17T12:10:12Z</time>
      </trkpt>
      <trkpt lat="59.252311" lon="17.930808">
        <ele>61.9</ele>
        <time>2019-11-17T12:10:15Z</time>
      </trkpt>
      <trkpt lat="59.252277" lon="17.93082">
        <ele>62.1</ele>
        <time>2019-11-17T12:10:19Z</time>
      </trkpt>
      <trkpt lat="59.252237" lon="17.930811">
        <ele>62.2</ele>
        <time>2019-11-17T12:10:22Z</time>
      </trkpt>
      <trkpt lat="59.252201" lon="17.930801">
        <ele>62.4</ele>
        <time>2019-11-17T12:10:26Z</time>
      </trkpt>
      <trkpt lat="59.252173" lon="17.930797">
        <ele>62.5</ele>
        <time>2019-11-17T12:10:29Z</time>
      </trkpt>
      <trkpt lat="59.25214" lon="17.930803">
        <ele>62.9</ele>
        <time>2019-11-17T12:10:34Z</time>
      </trkpt>
      <trkpt lat="59.252102" lon="17.930818">
        <ele>63.4</ele>
        <time>2019-11-17T12:10:38Z</time>
      </trkpt>
      <trkpt lat="59.252068" lon="17.930837">
        <ele>63.6</ele>
        <time>2019-11-17T12:10:43Z</time>
      </trkpt>
      <trkpt lat="59.252042" lon="17.930812">
        <ele>63.8</ele>
        <time>2019-11-17T12:10:51Z</time>
      </trkpt>
      <trkpt lat="59.252015" lon="17.930789">
        <ele>64.1</ele>
        <time>2019-11-17T12:11:00Z</time>
      </trkpt>
      <trkpt lat="59.251992" lon="17.930746">
        <ele>64.2</ele>
        <time>2019-11-17T12:11:06Z</time>
      </trkpt>
      <trkpt lat="59.25197" lon="17.930697">
        <ele>64.3</ele>
        <time>2019-11-17T12:11:11Z</time>
      </trkpt>
      <trkpt lat="59.251961" lon="17.930635">
        <ele>64.2</ele>
        <time>2019-11-17T12:11:18Z</time>
      </trkpt>
      <trkpt lat="59.251964" lon="17.930579">
        <ele>64.1</ele>
        <time>2019-11-17T12:11:24Z</time>
      </trkpt>
      <trkpt lat="59.251954" lon="17.93052">
        <ele>64</ele>
        <time>2019-11-17T12:11:30Z</time>
      </trkpt>
      <trkpt lat="59.251952" lon="17.930451">
        <ele>63.8</ele>
        <time>2019-11-17T12:11:36Z</time>
      </trkpt>
      <trkpt lat="59.251962" lon="17.930393">
        <ele>63.7</ele>
        <time>2019-11-17T12:11:40Z</time>
      </trkpt>
      <trkpt lat="59.251969" lon="17.930331">
        <ele>63.5</ele>
        <time>2019-11-17T12:11:46Z</time>
      </trkpt>
      <trkpt lat="59.251975" lon="17.930261">
        <ele>63.1</ele>
        <time>2019-11-17T12:11:53Z</time>
      </trkpt>
      <trkpt lat="59.251973" lon="17.9302">
        <ele>62.9</ele>
        <time>2019-11-17T12:11:58Z</time>
      </trkpt>
      <trkpt lat="59.251969" lon="17.930131">
        <ele>63</ele>
        <time>2019-11-17T12:12:02Z</time>
      </trkpt>
      <trkpt lat="59.251963" lon="17.930074">
        <ele>62.8</ele>
        <time>2019-11-17T12:12:04Z</time>
      </trkpt>
      <trkpt lat="59.251955" lon="17.929988">
        <ele>62.5</ele>
        <time>2019-11-17T12:12:08Z</time>
      </trkpt>
      <trkpt lat="59.251948" lon="17.929892">
        <ele>62.2</ele>
        <time>2019-11-17T12:12:13Z</time>
      </trkpt>
      <trkpt lat="59.251942" lon="17.929807">
        <ele>61.8</ele>
        <time>2019-11-17T12:12:17Z</time>
      </trkpt>
      <trkpt lat="59.25193" lon="17.929725">
        <ele>61.4</ele>
        <time>2019-11-17T12:12:21Z</time>
      </trkpt>
      <trkpt lat="59.251915" lon="17.929679">
        <ele>61.3</ele>
        <time>2019-11-17T12:12:24Z</time>
      </trkpt>
      <trkpt lat="59.251887" lon="17.929642">
        <ele>61.3</ele>
        <time>2019-11-17T12:12:26Z</time>
      </trkpt>
      <trkpt lat="59.25186" lon="17.929621">
        <ele>61.7</ele>
        <time>2019-11-17T12:12:29Z</time>
      </trkpt>
      <trkpt lat="59.251827" lon="17.929634">
        <ele>61.9</ele>
        <time>2019-11-17T12:12:36Z</time>
      </trkpt>
      <trkpt lat="59.251804" lon="17.929682">
        <ele>62.3</ele>
        <time>2019-11-17T12:12:40Z</time>
      </trkpt>
      <trkpt lat="59.251786" lon="17.929731">
        <ele>63.1</ele>
        <time>2019-11-17T12:12:49Z</time>
      </trkpt>
      <trkpt lat="59.251807" lon="17.929764">
        <ele>62.9</ele>
        <time>2019-11-17T12:13:05Z</time>
      </trkpt>
      <trkpt lat="59.251801" lon="17.929706">
        <ele>62.7</ele>
        <time>2019-11-17T12:13:22Z</time>
      </trkpt>
      <trkpt lat="59.251803" lon="17.929653">
        <ele>62.3</ele>
        <time>2019-11-17T12:13:24Z</time>
      </trkpt>
      <trkpt lat="59.251806" lon="17.929567">
        <ele>61.8</ele>
        <time>2019-11-17T12:13:28Z</time>
      </trkpt>
      <trkpt lat="59.251807" lon="17.929505">
        <ele>61.4</ele>
        <time>2019-11-17T12:13:32Z</time>
      </trkpt>
      <trkpt lat="59.251808" lon="17.929439">
        <ele>61.1</ele>
        <time>2019-11-17T12:13:37Z</time>
      </trkpt>
      <trkpt lat="59.251812" lon="17.929387">
        <ele>60.7</ele>
        <time>2019-11-17T12:13:41Z</time>
      </trkpt>
      <trkpt lat="59.251816" lon="17.929328">
        <ele>60.5</ele>
        <time>2019-11-17T12:13:46Z</time>
      </trkpt>
      <trkpt lat="59.251814" lon="17.929255">
        <ele>60.1</ele>
        <time>2019-11-17T12:13:52Z</time>
      </trkpt>
      <trkpt lat="59.251796" lon="17.929192">
        <ele>60</ele>
        <time>2019-11-17T12:13:56Z</time>
      </trkpt>
      <trkpt lat="59.251775" lon="17.929148">
        <ele>59.6</ele>
        <time>2019-11-17T12:13:59Z</time>
      </trkpt>
      <trkpt lat="59.251747" lon="17.929099">
        <ele>59.1</ele>
        <time>2019-11-17T12:14:03Z</time>
      </trkpt>
      <trkpt lat="59.251727" lon="17.92906">
        <ele>58.7</ele>
        <time>2019-11-17T12:14:06Z</time>
      </trkpt>
      <trkpt lat="59.251706" lon="17.929009">
        <ele>58.3</ele>
        <time>2019-11-17T12:14:13Z</time>
      </trkpt>
      <trkpt lat="59.251687" lon="17.928967">
        <ele>58.1</ele>
        <time>2019-11-17T12:14:21Z</time>
      </trkpt>
      <trkpt lat="59.251676" lon="17.928914">
        <ele>57.9</ele>
        <time>2019-11-17T12:14:29Z</time>
      </trkpt>
      <trkpt lat="59.251657" lon="17.928872">
        <ele>57.7</ele>
        <time>2019-11-17T12:14:35Z</time>
      </trkpt>
      <trkpt lat="59.251628" lon="17.928863">
        <ele>57.5</ele>
        <time>2019-11-17T12:14:43Z</time>
      </trkpt>
      <trkpt lat="59.251601" lon="17.928822">
        <ele>57.3</ele>
        <time>2019-11-17T12:14:48Z</time>
      </trkpt>
      <trkpt lat="59.251585" lon="17.928773">
        <ele>57.1</ele>
        <time>2019-11-17T12:14:58Z</time>
      </trkpt>
      <trkpt lat="59.251561" lon="17.92874">
        <ele>57</ele>
        <time>2019-11-17T12:15:09Z</time>
      </trkpt>
      <trkpt lat="59.251567" lon="17.928681">
        <ele>56.9</ele>
        <time>2019-11-17T12:15:20Z</time>
      </trkpt>
      <trkpt lat="59.251573" lon="17.928627">
        <ele>56.9</ele>
        <time>2019-11-17T12:15:23Z</time>
      </trkpt>
      <trkpt lat="59.251588" lon="17.928563">
        <ele>56.8</ele>
        <time>2019-11-17T12:15:27Z</time>
      </trkpt>
      <trkpt lat="59.251595" lon="17.9285">
        <ele>56.8</ele>
        <time>2019-11-17T12:15:31Z</time>
      </trkpt>
      <trkpt lat="59.251611" lon="17.928441">
        <ele>56.7</ele>
        <time>2019-11-17T12:15:36Z</time>
      </trkpt>
      <trkpt lat="59.251632" lon="17.928384">
        <ele>56.7</ele>
        <time>2019-11-17T12:15:39Z</time>
      </trkpt>
      <trkpt lat="59.251648" lon="17.928337">
        <ele>56.7</ele>
        <time>2019-11-17T12:15:43Z</time>
      </trkpt>
      <trkpt lat="59.251668" lon="17.928273">
        <ele>56.7</ele>
        <time>2019-11-17T12:15:46Z</time>
      </trkpt>
      <trkpt lat="59.251685" lon="17.92822">
        <ele>56.6</ele>
        <time>2019-11-17T12:15:50Z</time>
      </trkpt>
      <trkpt lat="59.251705" lon="17.928165">
        <ele>56.6</ele>
        <time>2019-11-17T12:15:54Z</time>
      </trkpt>
      <trkpt lat="59.251726" lon="17.928112">
        <ele>56.6</ele>
        <time>2019-11-17T12:15:57Z</time>
      </trkpt>
      <trkpt lat="59.251748" lon="17.928064">
        <ele>56.6</ele>
        <time>2019-11-17T12:16:01Z</time>
      </trkpt>
      <trkpt lat="59.251768" lon="17.928009">
        <ele>56.6</ele>
        <time>2019-11-17T12:16:04Z</time>
      </trkpt>
      <trkpt lat="59.251787" lon="17.927957">
        <ele>56.5</ele>
        <time>2019-11-17T12:16:06Z</time>
      </trkpt>
      <trkpt lat="59.251807" lon="17.927902">
        <ele>56.4</ele>
        <time>2019-11-17T12:16:11Z</time>
      </trkpt>
      <trkpt lat="59.251825" lon="17.927842">
        <ele>56.4</ele>
        <time>2019-11-17T12:16:16Z</time>
      </trkpt>
      <trkpt lat="59.251841" lon="17.927784">
        <ele>56.3</ele>
        <time>2019-11-17T12:16:19Z</time>
      </trkpt>
      <trkpt lat="59.251855" lon="17.927724">
        <ele>56.2</ele>
        <time>2019-11-17T12:16:22Z</time>
      </trkpt>
      <trkpt lat="59.251872" lon="17.927669">
        <ele>56.1</ele>
        <time>2019-11-17T12:16:25Z</time>
      </trkpt>
      <trkpt lat="59.251884" lon="17.927618">
        <ele>56.1</ele>
        <time>2019-11-17T12:16:28Z</time>
      </trkpt>
      <trkpt lat="59.251897" lon="17.927554">
        <ele>56</ele>
        <time>2019-11-17T12:16:32Z</time>
      </trkpt>
      <trkpt lat="59.25191" lon="17.927502">
        <ele>55.9</ele>
        <time>2019-11-17T12:16:35Z</time>
      </trkpt>
      <trkpt lat="59.251921" lon="17.927449">
        <ele>55.8</ele>
        <time>2019-11-17T12:16:39Z</time>
      </trkpt>
      <trkpt lat="59.251933" lon="17.927387">
        <ele>55.6</ele>
        <time>2019-11-17T12:16:44Z</time>
      </trkpt>
      <trkpt lat="59.251947" lon="17.927322">
        <ele>55.5</ele>
        <time>2019-11-17T12:16:49Z</time>
      </trkpt>
      <trkpt lat="59.251957" lon="17.927267">
        <ele>55.4</ele>
        <time>2019-11-17T12:16:55Z</time>
      </trkpt>
      <trkpt lat="59.25197" lon="17.927212">
        <ele>55.5</ele>
        <time>2019-11-17T12:17:00Z</time>
      </trkpt>
      <trkpt lat="59.251983" lon="17.92715">
        <ele>55.5</ele>
        <time>2019-11-17T12:17:06Z</time>
      </trkpt>
      <trkpt lat="59.251997" lon="17.927104">
        <ele>55.6</ele>
        <time>2019-11-17T12:17:10Z</time>
      </trkpt>
      <trkpt lat="59.252027" lon="17.92709">
        <ele>55.6</ele>
        <time>2019-11-17T12:17:28Z</time>
      </trkpt>
      <trkpt lat="59.252037" lon="17.927041">
        <ele>55.7</ele>
        <time>2019-11-17T12:17:37Z</time>
      </trkpt>
      <trkpt lat="59.252057" lon="17.926994">
        <ele>55.8</ele>
        <time>2019-11-17T12:17:47Z</time>
      </trkpt>
      <trkpt lat="59.252083" lon="17.926968">
        <ele>55.9</ele>
        <time>2019-11-17T12:18:10Z</time>
      </trkpt>
      <trkpt lat="59.252089" lon="17.926914">
        <ele>56</ele>
        <time>2019-11-17T12:18:45Z</time>
      </trkpt>
      <trkpt lat="59.252109" lon="17.926855">
        <ele>56.1</ele>
        <time>2019-11-17T12:18:53Z</time>
      </trkpt>
      <trkpt lat="59.252129" lon="17.926792">
        <ele>56.3</ele>
        <time>2019-11-17T12:18:58Z</time>
      </trkpt>
      <trkpt lat="59.252136" lon="17.926723">
        <ele>56.5</ele>
        <time>2019-11-17T12:19:01Z</time>
      </trkpt>
      <trkpt lat="59.252139" lon="17.926645">
        <ele>56.7</ele>
        <time>2019-11-17T12:19:06Z</time>
      </trkpt>
      <trkpt lat="59.252131" lon="17.92659">
        <ele>56.9</ele>
        <time>2019-11-17T12:19:10Z</time>
      </trkpt>
      <trkpt lat="59.252119" lon="17.926528">
        <ele>57.2</ele>
        <time>2019-11-17T12:19:14Z</time>
      </trkpt>
      <trkpt lat="59.252116" lon="17.926474">
        <ele>57.4</ele>
        <time>2019-11-17T12:19:19Z</time>
      </trkpt>
      <trkpt lat="59.252111" lon="17.926409">
        <ele>57.6</ele>
        <time>2019-11-17T12:19:24Z</time>
      </trkpt>
      <trkpt lat="59.252109" lon="17.926349">
        <ele>57.7</ele>
        <time>2019-11-17T12:19:30Z</time>
      </trkpt>
      <trkpt lat="59.252119" lon="17.926288">
        <ele>57.9</ele>
        <time>2019-11-17T12:19:36Z</time>
      </trkpt>
      <trkpt lat="59.252138" lon="17.926238">
        <ele>58.1</ele>
        <time>2019-11-17T12:19:42Z</time>
      </trkpt>
      <trkpt lat="59.252156" lon="17.926182">
        <ele>58.1</ele>
        <time>2019-11-17T12:19:46Z</time>
      </trkpt>
      <trkpt lat="59.252164" lon="17.926132">
        <ele>58.2</ele>
        <time>2019-11-17T12:19:51Z</time>
      </trkpt>
      <trkpt lat="59.252162" lon="17.926075">
        <ele>58.2</ele>
        <time>2019-11-17T12:19:58Z</time>
      </trkpt>
      <trkpt lat="59.252168" lon="17.926021">
        <ele>58.3</ele>
        <time>2019-11-17T12:20:15Z</time>
      </trkpt>
      <trkpt lat="59.252191" lon="17.925991">
        <ele>58.3</ele>
        <time>2019-11-17T12:20:21Z</time>
      </trkpt>
      <trkpt lat="59.252169" lon="17.925951">
        <ele>58.4</ele>
        <time>2019-11-17T12:21:15Z</time>
      </trkpt>
      <trkpt lat="59.252155" lon="17.925888">
        <ele>58.4</ele>
        <time>2019-11-17T12:21:19Z</time>
      </trkpt>
      <trkpt lat="59.252138" lon="17.925841">
        <ele>58.5</ele>
        <time>2019-11-17T12:21:21Z</time>
      </trkpt>
      <trkpt lat="59.252118" lon="17.925783">
        <ele>58.4</ele>
        <time>2019-11-17T12:21:25Z</time>
      </trkpt>
      <trkpt lat="59.252097" lon="17.925728">
        <ele>58.4</ele>
        <time>2019-11-17T12:21:30Z</time>
      </trkpt>
      <trkpt lat="59.252068" lon="17.925712">
        <ele>58.3</ele>
        <time>2019-11-17T12:21:48Z</time>
      </trkpt>
      <trkpt lat="59.252047" lon="17.925667">
        <ele>58.2</ele>
        <time>2019-11-17T12:22:24Z</time>
      </trkpt>
      <trkpt lat="59.252052" lon="17.925607">
        <ele>58.1</ele>
        <time>2019-11-17T12:22:30Z</time>
      </trkpt>
      <trkpt lat="59.25208" lon="17.925617">
        <ele>58</ele>
        <time>2019-11-17T12:22:55Z</time>
      </trkpt>
      <trkpt lat="59.252092" lon="17.925565">
        <ele>57.9</ele>
        <time>2019-11-17T12:23:03Z</time>
      </trkpt>
      <trkpt lat="59.252077" lon="17.925509">
        <ele>57.8</ele>
        <time>2019-11-17T12:23:11Z</time>
      </trkpt>
      <trkpt lat="59.252068" lon="17.925452">
        <ele>57.7</ele>
        <time>2019-11-17T12:23:19Z</time>
      </trkpt>
      <trkpt lat="59.25204" lon="17.925401">
        <ele>57.6</ele>
        <time>2019-11-17T12:23:24Z</time>
      </trkpt>
      <trkpt lat="59.252009" lon="17.925368">
        <ele>57.5</ele>
        <time>2019-11-17T12:23:28Z</time>
      </trkpt>
      <trkpt lat="59.251981" lon="17.925344">
        <ele>57.4</ele>
        <time>2019-11-17T12:23:31Z</time>
      </trkpt>
      <trkpt lat="59.251956" lon="17.925311">
        <ele>57.2</ele>
        <time>2019-11-17T12:23:37Z</time>
      </trkpt>
      <trkpt lat="59.251928" lon="17.925291">
        <ele>57.1</ele>
        <time>2019-11-17T12:23:43Z</time>
      </trkpt>
      <trkpt lat="59.251896" lon="17.925292">
        <ele>56.9</ele>
        <time>2019-11-17T12:24:01Z</time>
      </trkpt>
      <trkpt lat="59.251868" lon="17.925293">
        <ele>56.9</ele>
        <time>2019-11-17T12:24:07Z</time>
      </trkpt>
      <trkpt lat="59.25184" lon="17.925287">
        <ele>56.8</ele>
        <time>2019-11-17T12:24:10Z</time>
      </trkpt>
      <trkpt lat="59.251809" lon="17.925264">
        <ele>56.7</ele>
        <time>2019-11-17T12:24:14Z</time>
      </trkpt>
      <trkpt lat="59.251798" lon="17.925215">
        <ele>56.6</ele>
        <time>2019-11-17T12:24:27Z</time>
      </trkpt>
      <trkpt lat="59.251765" lon="17.925187">
        <ele>56.5</ele>
        <time>2019-11-17T12:24:34Z</time>
      </trkpt>
      <trkpt lat="59.251735" lon="17.925194">
        <ele>56.4</ele>
        <time>2019-11-17T12:24:42Z</time>
      </trkpt>
      <trkpt lat="59.251702" lon="17.925175">
        <ele>56.2</ele>
        <time>2019-11-17T12:24:54Z</time>
      </trkpt>
      <trkpt lat="59.251676" lon="17.925151">
        <ele>56.5</ele>
        <time>2019-11-17T12:24:57Z</time>
      </trkpt>
      <trkpt lat="59.251645" lon="17.92513">
        <ele>56.8</ele>
        <time>2019-11-17T12:25:00Z</time>
      </trkpt>
      <trkpt lat="59.251611" lon="17.925115">
        <ele>57.1</ele>
        <time>2019-11-17T12:25:03Z</time>
      </trkpt>
      <trkpt lat="59.251567" lon="17.92509">
        <ele>57.5</ele>
        <time>2019-11-17T12:25:06Z</time>
      </trkpt>
      <trkpt lat="59.251535" lon="17.925068">
        <ele>57.8</ele>
        <time>2019-11-17T12:25:10Z</time>
      </trkpt>
      <trkpt lat="59.251504" lon="17.925048">
        <ele>58.1</ele>
        <time>2019-11-17T12:25:13Z</time>
      </trkpt>
      <trkpt lat="59.251473" lon="17.925029">
        <ele>58.4</ele>
        <time>2019-11-17T12:25:18Z</time>
      </trkpt>
      <trkpt lat="59.251439" lon="17.925019">
        <ele>58.7</ele>
        <time>2019-11-17T12:25:25Z</time>
      </trkpt>
      <trkpt lat="59.251405" lon="17.925014">
        <ele>59</ele>
        <time>2019-11-17T12:25:28Z</time>
      </trkpt>
      <trkpt lat="59.251375" lon="17.925002">
        <ele>59.3</ele>
        <time>2019-11-17T12:25:33Z</time>
      </trkpt>
      <trkpt lat="59.251354" lon="17.924955">
        <ele>59.6</ele>
        <time>2019-11-17T12:25:39Z</time>
      </trkpt>
      <trkpt lat="59.251342" lon="17.924907">
        <ele>59.8</ele>
        <time>2019-11-17T12:25:42Z</time>
      </trkpt>
    </trkseg>
  </trk>
</gpx>